Observation data for Van Horn on 05/25/2020      Previous  Date       Current Mesonet Observations  Soil Data  Daily Summary Page  Observations in Plain Language
KVA1 250500Z 26008KT 25/M03 A298 RMK A01 T02461033  RH  016%=      5-min Rain = 0
KVA1 250501Z 26008KT 25/M03 A298 RMK A01 T02461034  RH  015%=      5-min Rain = 0
KVA1 250502Z 26008KT 25/M03 A298 RMK A01 T02471033  RH  015%=      5-min Rain = 0
KVA1 250503Z 26008KT 25/M03 A298 RMK A01 T02461034  RH  015%=      5-min Rain = 0
KVA1 250504Z 26008KT 25/M03 A298 RMK A01 T02471034  RH  015%=      5-min Rain = 0
KVA1 250505Z 26007KT 25/M04 A298 RMK A01 T02471035  RH  015%=      5-min Rain = 0
KVA1 250506Z 25006KT 25/M04 A298 RMK A01 T02461035  RH  015%=      5-min Rain = 0
KVA1 250507Z 25007KT 24/M04 A298 RMK A01 T02441035  RH  015%=      5-min Rain = 0
KVA1 250508Z 26008KT 24/M04 A298 RMK A01 T02431035  RH  016%=      5-min Rain = 0
KVA1 250509Z 26008KT 24/M04 A2981 RMK A01 T02431035  RH  016%=      5-min Rain = 0
KVA1 250510Z 26007KT 24/M04 A2981 RMK A01 T02431035  RH  016%=      5-min Rain = 0
KVA1 250511Z 25007KT 24/M04 A2981 RMK A01 T02421035  RH  016%=      5-min Rain = 0
KVA1 250512Z 26006KT 24/M04 A2981 RMK A01 T02431035  RH  016%=      5-min Rain = 0
KVA1 250513Z 25006KT 24/M03 A2981 RMK A01 T02411034  RH  016%=      5-min Rain = 0
KVA1 250514Z 25007KT 24/M03 A2981 RMK A01 T02391034  RH  016%=      5-min Rain = 0
KVA1 250515Z 25007KT 24/M03 A2981 RMK A01 T02371033  RH  016%=      5-min Rain = 0
KVA1 250516Z 26007KT 24/M03 A2981 RMK A01 T02351033  RH  017%=      5-min Rain = 0
KVA1 250517Z 26007KT 23/M03 A2981 RMK A01 T02331033  RH  017%=      5-min Rain = 0
KVA1 250518Z 25007KT 23/M03 A2981 RMK A01 T02311033  RH  017%=      5-min Rain = 0
KVA1 250519Z 25006KT 23/M03 A2981 RMK A01 T02301032  RH  017%=      5-min Rain = 0
KVA1 250520Z 25007KT 23/M03 A2981 RMK A01 T02281033  RH  017%=      5-min Rain = 0
KVA1 250521Z 26007KT 23/M03 A2981 RMK A01 T02261033  RH  017%=      5-min Rain = 0
KVA1 250522Z 25007KT 23/M03 A2981 RMK A01 T02251033  RH  018%=      5-min Rain = 0
KVA1 250523Z 26007KT 22/M03 A2981 RMK A01 T02241034  RH  018%=      5-min Rain = 0
KVA1 250524Z 26007KT 22/M03 A2981 RMK A01 T02231034  RH  018%=      5-min Rain = 0
KVA1 250525Z 26007KT 22/M04 A2981 RMK A01 T02221035  RH  018%=      5-min Rain = 0
KVA1 250526Z 26008KT 22/M04 A2981 RMK A01 T02211035  RH  018%=      5-min Rain = 0
KVA1 250527Z 26007KT 22/M04 A2981 RMK A01 T02201035  RH  018%=      5-min Rain = 0
KVA1 250528Z 26007KT 22/M04 A2981 RMK A01 T02201036  RH  018%=      5-min Rain = 0
KVA1 250529Z 26007KT 22/M04 A2981 RMK A01 T02191037  RH  018%=      5-min Rain = 0
KVA1 250530Z 27007KT 22/M04 A2981 RMK A01 T02181037  RH  018%=      5-min Rain = 0
KVA1 250531Z 26007KT 22/M04 A2981 RMK A01 T02181038  RH  018%=      5-min Rain = 0
KVA1 250532Z 26007KT 22/M04 A2981 RMK A01 T02181038  RH  018%=      5-min Rain = 0
KVA1 250533Z 26005KT 22/M04 A2981 RMK A01 T02181039  RH  018%=      5-min Rain = 0
KVA1 250534Z 26006KT 22/M04 A2981 RMK A01 T02171039  RH  018%=      5-min Rain = 0
KVA1 250535Z 26007KT 22/M04 A2981 RMK A01 T02161040  RH  018%=      5-min Rain = 0
KVA1 250536Z 26008KT 22/M04 A2981 RMK A01 T02171041  RH  017%=      5-min Rain = 0
KVA1 250537Z 26009KT 22/M04 A2981 RMK A01 T02181042  RH  017%=      5-min Rain = 0
KVA1 250538Z 26008KT 22/M04 A2981 RMK A01 T02191044  RH  017%=      5-min Rain = 0
KVA1 250539Z 27007KT 22/M05 A2981 RMK A01 T02211045  RH  017%=      5-min Rain = 0
KVA1 250540Z 27007KT 22/M05 A2981 RMK A01 T02231045  RH  016%=      5-min Rain = 0
KVA1 250541Z 26007KT 23/M05 A2981 RMK A01 T02251045  RH  016%=      5-min Rain = 0
KVA1 250542Z 26007KT 23/M05 A2981 RMK A01 T02251047  RH  016%=      5-min Rain = 0
KVA1 250543Z 27007KT 23/M05 A2981 RMK A01 T02261047  RH  016%=      5-min Rain = 0
KVA1 250544Z 27007KT 23/M05 A2981 RMK A01 T02271048  RH  016%=      5-min Rain = 0
KVA1 250545Z 27006KT 23/M05 A2981 RMK A01 T02281049  RH  015%=      5-min Rain = 0
KVA1 250546Z 27006KT 23/M05 A2982 RMK A01 T02291050  RH  015%=      5-min Rain = 0
KVA1 250547Z 28005KT 23/M05 A2982 RMK A01 T02291050  RH  015%=      5-min Rain = 0
KVA1 250548Z 27005KT 23/M05 A2982 RMK A01 T02291051  RH  015%=      5-min Rain = 0
KVA1 250549Z 27004KT 23/M05 A2982 RMK A01 T02301051  RH  015%=      5-min Rain = 0
KVA1 250550Z 28004KT 23/M05 A2982 RMK A01 T02291052  RH  015%=      5-min Rain = 0
KVA1 250551Z 27005KT 23/M05 A2982 RMK A01 T02291052  RH  015%=      5-min Rain = 0
KVA1 250552Z 27005KT 23/M05 A2982 RMK A01 T02291053  RH  015%=      5-min Rain = 0
KVA1 250553Z 27005KT 23/M05 A2982 RMK A01 T02281054  RH  015%=      5-min Rain = 0
KVA1 250554Z 27006KT 23/M06 A2982 RMK A01 T02291055  RH  015%=      5-min Rain = 0
KVA1 250555Z 27006KT 23/M06 A2982 RMK A01 T02301055  RH  014%=      5-min Rain = 0
KVA1 250556Z 26005KT 23/M06 A2983 RMK A01 T02311056  RH  014%=      5-min Rain = 0
KVA1 250557Z 27005KT 23/M06 A2983 RMK A01 T02311057  RH  014%=      5-min Rain = 0
KVA1 250558Z 27005KT 23/M06 A2983 RMK A01 T02321056  RH  014%=      5-min Rain = 0
KVA1 250559Z 27005KT 23/M06 A2983 RMK A01 T02311058  RH  014%=      5-min Rain = 0
KVA1 250600Z 26005KT 23/M06 A2983 RMK A01 T02311058  RH  014%=      5-min Rain = 0
KVA1 250601Z 27005KT 23/M06 A2983 RMK A01 T02321059  RH  014%=      5-min Rain = 0
KVA1 250602Z 28004KT 23/M06 A2983 RMK A01 T02321059  RH  014%=      5-min Rain = 0
KVA1 250603Z 27004KT 23/M06 A2983 RMK A01 T02321059  RH  014%=      5-min Rain = 0
KVA1 250604Z 26005KT 23/M06 A2983 RMK A01 T02321059  RH  014%=      5-min Rain = 0
KVA1 250605Z 26006KT 23/M06 A2983 RMK A01 T02331060  RH  014%=      5-min Rain = 0
KVA1 250606Z 26005KT 23/M06 A2983 RMK A01 T02331060  RH  014%=      5-min Rain = 0
KVA1 250607Z 26006KT 23/M06 A2983 RMK A01 T02321061  RH  014%=      5-min Rain = 0
KVA1 250608Z 27007KT 23/M06 A2983 RMK A01 T02321061  RH  014%=      5-min Rain = 0
KVA1 250609Z 28005KT 23/M06 A2984 RMK A01 T02331062  RH  014%=      5-min Rain = 0
KVA1 250610Z 27004KT 23/M06 A2984 RMK A01 T02331061  RH  014%=      5-min Rain = 0
KVA1 250611Z 27004KT 23/M06 A2984 RMK A01 T02321062  RH  014%=      5-min Rain = 0
KVA1 250612Z 27005KT 23/M06 A2984 RMK A01 T02311062  RH  014%=      5-min Rain = 0
KVA1 250613Z 27006KT 23/M06 A2984 RMK A01 T02301062  RH  014%=      5-min Rain = 0
KVA1 250614Z 28007KT 23/M06 A2984 RMK A01 T02311063  RH  014%=      5-min Rain = 0
KVA1 250615Z 28007KT 23/M06 A2984 RMK A01 T02311063  RH  014%=      5-min Rain = 0
KVA1 250616Z 27007KT 23/M06 A2984 RMK A01 T02311063  RH  014%=      5-min Rain = 0
KVA1 250617Z 27007KT 23/M06 A2984 RMK A01 T02321063  RH  013%=      5-min Rain = 0
KVA1 250618Z 27007KT 23/M06 A2984 RMK A01 T02331063  RH  013%=      5-min Rain = 0
KVA1 250619Z 27007KT 23/M06 A2984 RMK A01 T02331064  RH  013%=      5-min Rain = 0
KVA1 250620Z 28007KT 23/M06 A2984 RMK A01 T02331064  RH  013%=      5-min Rain = 0
KVA1 250621Z 27006KT 23/M06 A2984 RMK A01 T02331064  RH  013%=      5-min Rain = 0
KVA1 250622Z 28007KT 23/M06 A2984 RMK A01 T02331064  RH  013%=      5-min Rain = 0
KVA1 250623Z 28006KT 23/M06 A2984 RMK A01 T02321064  RH  013%=      5-min Rain = 0
KVA1 250624Z 28006KT 23/M06 A2984 RMK A01 T02321063  RH  013%=      5-min Rain = 0
KVA1 250625Z 28006KT 23/M06 A2984 RMK A01 T02301064  RH  013%=      5-min Rain = 0
KVA1 250626Z 28005KT 23/M06 A2984 RMK A01 T02291064  RH  014%=      5-min Rain = 0
KVA1 250627Z 27005KT 23/M06 A2984 RMK A01 T02281064  RH  014%=      5-min Rain = 0
KVA1 250628Z 27005KT 23/M07 A2984 RMK A01 T02271065  RH  014%=      5-min Rain = 0
KVA1 250629Z 27005KT 23/M07 A2984 RMK A01 T02261065  RH  014%=      5-min Rain = 0
KVA1 250630Z 27005KT 23/M06 A2984 RMK A01 T02251064  RH  014%=      5-min Rain = 0
KVA1 250631Z 26005KT 22/M07 A2984 RMK A01 T02241065  RH  014%=      5-min Rain = 0
KVA1 250632Z 26005KT 22/M06 A2984 RMK A01 T02231064  RH  014%=      5-min Rain = 0
KVA1 250633Z 26005KT 22/M06 A2984 RMK A01 T02221064  RH  014%=      5-min Rain = 0
KVA1 250634Z 26006KT 22/M07 A2984 RMK A01 T02211065  RH  014%=      5-min Rain = 0
KVA1 250635Z 26006KT 22/M07 A2984 RMK A01 T02191065  RH  014%=      5-min Rain = 0
KVA1 250636Z 25006KT 22/M07 A2984 RMK A01 T02191065  RH  014%=      5-min Rain = 0
KVA1 250637Z 26007KT 22/M07 A2984 RMK A01 T02181065  RH  015%=      5-min Rain = 0
KVA1 250638Z 26007KT 22/M06 A2984 RMK A01 T02171064  RH  015%=      5-min Rain = 0
KVA1 250639Z 26007KT 22/M06 A2984 RMK A01 T02161064  RH  015%=      5-min Rain = 0
KVA1 250640Z 26007KT 22/M06 A2984 RMK A01 T02161064  RH  015%=      5-min Rain = 0
KVA1 250641Z 26007KT 22/M07 A2984 RMK A01 T02161065  RH  015%=      5-min Rain = 0
KVA1 250642Z 26007KT 22/M07 A2984 RMK A01 T02151065  RH  015%=      5-min Rain = 0
KVA1 250643Z 25007KT 22/M06 A2984 RMK A01 T02151064  RH  015%=      5-min Rain = 0
KVA1 250644Z 26007KT 21/M07 A2984 RMK A01 T02141065  RH  015%=      5-min Rain = 0
KVA1 250645Z 26007KT 21/M07 A2984 RMK A01 T02131065  RH  015%=      5-min Rain = 0
KVA1 250646Z 25007KT 21/M07 A2984 RMK A01 T02131065  RH  015%=      5-min Rain = 0
KVA1 250647Z 26007KT 21/M07 A2984 RMK A01 T02141065  RH  015%=      5-min Rain = 0
KVA1 250648Z 26007KT 21/M06 A2984 RMK A01 T02131064  RH  015%=      5-min Rain = 0
KVA1 250649Z 25006KT 21/M07 A2984 RMK A01 T02131065  RH  015%=      5-min Rain = 0
KVA1 250650Z 26008KT 21/M07 A2984 RMK A01 T02131065  RH  015%=      5-min Rain = 0
KVA1 250651Z 26007KT 21/M07 A2984 RMK A01 T02131065  RH  015%=      5-min Rain = 0
KVA1 250652Z 26006KT 21/M07 A2984 RMK A01 T02131065  RH  015%=      5-min Rain = 0
KVA1 250653Z 26006KT 21/M06 A2984 RMK A01 T02141064  RH  015%=      5-min Rain = 0
KVA1 250654Z 26006KT 21/M07 A2984 RMK A01 T02131065  RH  015%=      5-min Rain = 0
KVA1 250655Z 26006KT 21/M06 A2984 RMK A01 T02131064  RH  015%=      5-min Rain = 0
KVA1 250656Z 26006KT 21/M06 A2984 RMK A01 T02131064  RH  015%=      5-min Rain = 0
KVA1 250657Z 26006KT 21/M06 A2984 RMK A01 T02131064  RH  015%=      5-min Rain = 0
KVA1 250658Z 26007KT 21/M06 A2984 RMK A01 T02141064  RH  015%=      5-min Rain = 0
KVA1 250659Z 26007KT 21/M06 A2984 RMK A01 T02141064  RH  015%=      5-min Rain = 0
KVA1 250700Z 27006KT 21/M06 A2984 RMK A01 T02141064  RH  015%=      5-min Rain = 0
KVA1 250701Z 26006KT 21/M06 A2984 RMK A01 T02141064  RH  015%=      5-min Rain = 0
KVA1 250702Z 26006KT 21/M06 A2984 RMK A01 T02131064  RH  015%=      5-min Rain = 0
KVA1 250703Z 26006KT 21/M06 A2984 RMK A01 T02131064  RH  015%=      5-min Rain = 0
KVA1 250704Z 26006KT 21/M06 A2984 RMK A01 T02121064  RH  015%=      5-min Rain = 0
KVA1 250705Z 26006KT 21/M06 A2984 RMK A01 T02121064  RH  015%=      5-min Rain = 0
KVA1 250706Z 26006KT 21/M06 A2984 RMK A01 T02121064  RH  015%=      5-min Rain = 0
KVA1 250707Z 26006KT 21/M06 A2984 RMK A01 T02111064  RH  015%=      5-min Rain = 0
KVA1 250708Z 26006KT 21/M07 A2984 RMK A01 T02111065  RH  015%=      5-min Rain = 0
KVA1 250709Z 26005KT 21/M06 A2984 RMK A01 T02101064  RH  015%=      5-min Rain = 0
KVA1 250710Z 26005KT 21/M06 A2984 RMK A01 T02101064  RH  015%=      5-min Rain = 0
KVA1 250711Z 27005KT 21/M07 A2984 RMK A01 T02081065  RH  015%=      5-min Rain = 0
KVA1 250712Z 26006KT 21/M07 A2984 RMK A01 T02071065  RH  015%=      5-min Rain = 0
KVA1 250713Z 26005KT 21/M06 A2984 RMK A01 T02071064  RH  016%=      5-min Rain = 0
KVA1 250714Z 26005KT 21/M07 A2984 RMK A01 T02061065  RH  016%=      5-min Rain = 0
KVA1 250715Z 26005KT 21/M07 A2984 RMK A01 T02061065  RH  016%=      5-min Rain = 0
KVA1 250716Z 26005KT 21/M06 A2984 RMK A01 T02061064  RH  016%=      5-min Rain = 0
KVA1 250717Z 26005KT 21/M06 A2984 RMK A01 T02051064  RH  016%=      5-min Rain = 0
KVA1 250718Z 26005KT 21/M06 A2985 RMK A01 T02051064  RH  016%=      5-min Rain = 0
KVA1 250719Z 27004KT 21/M06 A2985 RMK A01 T02051063  RH  016%=      5-min Rain = 0
KVA1 250720Z 26005KT 20/M06 A2984 RMK A01 T02031064  RH  016%=      5-min Rain = 0
KVA1 250721Z 28007KT 20/M06 A2984 RMK A01 T02021064  RH  016%=      5-min Rain = 0
KVA1 250722Z 26005KT 20/M06 A2985 RMK A01 T02031064  RH  016%=      5-min Rain = 0
KVA1 250723Z 26005KT 20/M06 A2985 RMK A01 T02041063  RH  016%=      5-min Rain = 0
KVA1 250724Z 25006KT 20/M06 A2985 RMK A01 T02041064  RH  016%=      5-min Rain = 0
KVA1 250725Z 26006KT 20/M06 A2985 RMK A01 T02041064  RH  016%=      5-min Rain = 0
KVA1 250726Z 26006KT 20/M06 A2985 RMK A01 T02041063  RH  016%=      5-min Rain = 0
KVA1 250727Z 26006KT 20/M06 A2985 RMK A01 T02041063  RH  016%=      5-min Rain = 0
KVA1 250728Z 26006KT 20/M06 A2985 RMK A01 T02041063  RH  016%=      5-min Rain = 0
KVA1 250729Z 26007KT 20/M06 A2985 RMK A01 T02041063  RH  016%=      5-min Rain = 0
KVA1 250730Z 26007KT 20/M06 A2985 RMK A01 T02031064  RH  016%=      5-min Rain = 0
KVA1 250731Z 26007KT 20/M06 A2985 RMK A01 T02031063  RH  016%=      5-min Rain = 0
KVA1 250732Z 26007KT 20/M06 A2985 RMK A01 T02021064  RH  016%=      5-min Rain = 0
KVA1 250733Z 26007KT 20/M06 A2985 RMK A01 T02001064  RH  016%=      5-min Rain = 0
KVA1 250734Z 27007KT 20/M06 A2985 RMK A01 T02001063  RH  016%=      5-min Rain = 0
KVA1 250735Z 27005KT 20/M06 A2985 RMK A01 T02021063  RH  016%=      5-min Rain = 0
KVA1 250736Z 27005KT 20/M06 A2985 RMK A01 T02021062  RH  016%=      5-min Rain = 0
KVA1 250737Z 26005KT 20/M06 A2985 RMK A01 T02021063  RH  016%=      5-min Rain = 0
KVA1 250738Z 26006KT 20/M06 A2985 RMK A01 T02021063  RH  016%=      5-min Rain = 0
KVA1 250739Z 27006KT 20/M06 A2985 RMK A01 T02011063  RH  016%=      5-min Rain = 0
KVA1 250740Z 27006KT 20/M06 A2985 RMK A01 T02021062  RH  016%=      5-min Rain = 0
KVA1 250741Z 27006KT 20/M06 A2985 RMK A01 T02021062  RH  016%=      5-min Rain = 0
KVA1 250742Z 27006KT 20/M06 A2985 RMK A01 T02021062  RH  016%=      5-min Rain = 0
KVA1 250743Z 26006KT 20/M06 A2985 RMK A01 T02021062  RH  016%=      5-min Rain = 0
KVA1 250744Z 27007KT 20/M06 A2985 RMK A01 T02021062  RH  016%=      5-min Rain = 0
KVA1 250745Z 27007KT 20/M06 A2985 RMK A01 T02031062  RH  016%=      5-min Rain = 0
KVA1 250746Z 26006KT 20/M06 A2985 RMK A01 T02041062  RH  016%=      5-min Rain = 0
KVA1 250747Z 26006KT 21/M06 A2985 RMK A01 T02061062  RH  016%=      5-min Rain = 0
KVA1 250748Z 27006KT 21/M06 A2985 RMK A01 T02061062  RH  016%=      5-min Rain = 0
KVA1 250749Z 27006KT 21/M06 A2985 RMK A01 T02061062  RH  016%=      5-min Rain = 0
KVA1 250750Z 27005KT 21/M06 A2985 RMK A01 T02061062  RH  016%=      5-min Rain = 0
KVA1 250751Z 27006KT 21/M06 A2985 RMK A01 T02051062  RH  016%=      5-min Rain = 0
KVA1 250752Z 26005KT 21/M06 A2985 RMK A01 T02051062  RH  016%=      5-min Rain = 0
KVA1 250753Z 27006KT 21/M06 A2985 RMK A01 T02051061  RH  016%=      5-min Rain = 0
KVA1 250754Z 27006KT 20/M06 A2985 RMK A01 T02041062  RH  016%=      5-min Rain = 0
KVA1 250755Z 27006KT 20/M06 A2985 RMK A01 T02041061  RH  016%=      5-min Rain = 0
KVA1 250756Z 27006KT 21/M06 A2985 RMK A01 T02061060  RH  016%=      5-min Rain = 0
KVA1 250757Z 27005KT 21/M06 A2985 RMK A01 T02061060  RH  016%=      5-min Rain = 0
KVA1 250758Z 27005KT 21/M06 A2985 RMK A01 T02051061  RH  016%=      5-min Rain = 0
KVA1 250759Z 27006KT 21/M06 A2985 RMK A01 T02051062  RH  016%=      5-min Rain = 0
KVA1 250800Z 28006KT 20/M06 A2985 RMK A01 T02041061  RH  016%=      5-min Rain = 0
KVA1 250801Z 27006KT 20/M06 A2984 RMK A01 T02041061  RH  016%=      5-min Rain = 0
KVA1 250802Z 27007KT 20/M06 A2984 RMK A01 T02041061  RH  016%=      5-min Rain = 0
KVA1 250803Z 27006KT 21/M06 A2984 RMK A01 T02061060  RH  016%=      5-min Rain = 0
KVA1 250804Z 27006KT 21/M06 A2984 RMK A01 T02091059  RH  016%=      5-min Rain = 0
KVA1 250805Z 27006KT 21/M06 A2984 RMK A01 T02101059  RH  016%=      5-min Rain = 0
KVA1 250806Z 27007KT 21/M06 A2984 RMK A01 T02101060  RH  016%=      5-min Rain = 0
KVA1 250807Z 27006KT 21/M06 A2984 RMK A01 T02111059  RH  016%=      5-min Rain = 0
KVA1 250808Z 27006KT 21/M06 A2984 RMK A01 T02121060  RH  016%=      5-min Rain = 0
KVA1 250809Z 27005KT 21/M06 A2984 RMK A01 T02121060  RH  016%=      5-min Rain = 0
KVA1 250810Z 27005KT 21/M06 A2984 RMK A01 T02121060  RH  016%=      5-min Rain = 0
KVA1 250811Z 26005KT 21/M06 A2984 RMK A01 T02111059  RH  016%=      5-min Rain = 0
KVA1 250812Z 27005KT 21/M06 A2984 RMK A01 T02101060  RH  016%=      5-min Rain = 0
KVA1 250813Z 27005KT 21/M06 A2984 RMK A01 T02091060  RH  016%=      5-min Rain = 0
KVA1 250814Z 26004KT 21/M06 A2984 RMK A01 T02081060  RH  016%=      5-min Rain = 0
KVA1 250815Z 26005KT 21/M06 A2984 RMK A01 T02071060  RH  016%=      5-min Rain = 0
KVA1 250816Z 27005KT 21/M06 A2984 RMK A01 T02061060  RH  016%=      5-min Rain = 0
KVA1 250817Z 27005KT 21/M06 A2984 RMK A01 T02061060  RH  016%=      5-min Rain = 0
KVA1 250818Z 27006KT 21/M06 A2984 RMK A01 T02061060  RH  016%=      5-min Rain = 0
KVA1 250819Z 26004KT 21/M06 A2984 RMK A01 T02071059  RH  016%=      5-min Rain = 0
KVA1 250820Z 26004KT 21/M06 A2984 RMK A01 T02071060  RH  016%=      5-min Rain = 0
KVA1 250821Z 27005KT 21/M06 A2984 RMK A01 T02071059  RH  016%=      5-min Rain = 0
KVA1 250822Z 26005KT 21/M06 A2984 RMK A01 T02061060  RH  016%=      5-min Rain = 0
KVA1 250823Z 27004KT 21/M06 A2984 RMK A01 T02061060  RH  016%=      5-min Rain = 0
KVA1 250824Z 27005KT 21/M06 A2984 RMK A01 T02061060  RH  016%=      5-min Rain = 0
KVA1 250825Z 27005KT 21/M06 A2984 RMK A01 T02051060  RH  016%=      5-min Rain = 0
KVA1 250826Z 27004KT 20/M06 A2984 RMK A01 T02041060  RH  016%=      5-min Rain = 0
KVA1 250827Z 27005KT 21/M06 A2984 RMK A01 T02051059  RH  016%=      5-min Rain = 0
KVA1 250828Z 27005KT 21/M06 A2984 RMK A01 T02051059  RH  016%=      5-min Rain = 0
KVA1 250829Z 27005KT 20/M06 A2984 RMK A01 T02041060  RH  016%=      5-min Rain = 0
KVA1 250830Z 27005KT 20/M06 A2984 RMK A01 T02041060  RH  016%=      5-min Rain = 0
KVA1 250831Z 27005KT 21/M06 A2984 RMK A01 T02051059  RH  016%=      5-min Rain = 0
KVA1 250832Z 27005KT 21/M06 A2984 RMK A01 T02061059  RH  016%=      5-min Rain = 0
KVA1 250833Z 27005KT 21/M06 A2984 RMK A01 T02061060  RH  016%=      5-min Rain = 0
KVA1 250834Z 27004KT 21/M06 A2984 RMK A01 T02071060  RH  016%=      5-min Rain = 0
KVA1 250835Z 26005KT 21/M06 A2984 RMK A01 T02071060  RH  016%=      5-min Rain = 0
KVA1 250836Z 26004KT 21/M06 A2984 RMK A01 T02071061  RH  016%=      5-min Rain = 0
KVA1 250837Z 26005KT 21/M06 A2984 RMK A01 T02081060  RH  016%=      5-min Rain = 0
KVA1 250838Z 27005KT 21/M06 A2984 RMK A01 T02081061  RH  016%=      5-min Rain = 0
KVA1 250839Z 26005KT 21/M06 A2983 RMK A01 T02091061  RH  016%=      5-min Rain = 0
KVA1 250840Z 26006KT 21/M06 A2983 RMK A01 T02101060  RH  016%=      5-min Rain = 0
KVA1 250841Z 26006KT 21/M06 A2984 RMK A01 T02121060  RH  016%=      5-min Rain = 0
KVA1 250842Z 26006KT 21/M06 A2984 RMK A01 T02131060  RH  015%=      5-min Rain = 0
KVA1 250843Z 25005KT 21/M06 A2984 RMK A01 T02141060  RH  015%=      5-min Rain = 0
KVA1 250844Z 25006KT 22/M06 A2984 RMK A01 T02151060  RH  015%=      5-min Rain = 0
KVA1 250845Z 25005KT 21/M06 A2984 RMK A01 T02141060  RH  015%=      5-min Rain = 0
KVA1 250846Z 24005KT 21/M06 A2984 RMK A01 T02141061  RH  015%=      5-min Rain = 0
KVA1 250847Z 24004KT 21/M06 A2984 RMK A01 T02141060  RH  015%=      5-min Rain = 0
KVA1 250848Z 21004KT 21/M06 A2984 RMK A01 T02131060  RH  015%=      5-min Rain = 0
KVA1 250849Z 21004KT 21/M06 A2984 RMK A01 T02081062  RH  016%=      5-min Rain = 0
KVA1 250850Z 21004KT 20/M06 A2984 RMK A01 T02021062  RH  016%=      5-min Rain = 0
KVA1 250851Z 20004KT 20/M06 A2984 RMK A01 T01981062  RH  017%=      5-min Rain = 0
KVA1 250852Z 21006KT 20/M06 A2984 RMK A01 T01961061  RH  017%=      5-min Rain = 0
KVA1 250853Z 21005KT 20/M06 A2984 RMK A01 T01951061  RH  017%=      5-min Rain = 0
KVA1 250854Z 20005KT 20/M06 A2984 RMK A01 T01951060  RH  017%=      5-min Rain = 0
KVA1 250855Z 20005KT 19/M06 A2984 RMK A01 T01931061  RH  017%=      5-min Rain = 0
KVA1 250856Z 20006KT 19/M06 A2984 RMK A01 T01921061  RH  018%=      5-min Rain = 0
KVA1 250857Z 19006KT 19/M06 A2984 RMK A01 T01911061  RH  018%=      5-min Rain = 0
KVA1 250858Z 20006KT 19/M06 A2984 RMK A01 T01901060  RH  018%=      5-min Rain = 0
KVA1 250859Z 20006KT 19/M06 A2984 RMK A01 T01891060  RH  018%=      5-min Rain = 0
KVA1 250900Z 20006KT 19/M06 A2984 RMK A01 T01881060  RH  018%=      5-min Rain = 0
KVA1 250901Z 19006KT 19/M06 A2984 RMK A01 T01871060  RH  018%=      5-min Rain = 0
KVA1 250902Z 19006KT 19/M06 A2984 RMK A01 T01861060  RH  018%=      5-min Rain = 0
KVA1 250903Z 19005KT 19/M06 A2984 RMK A01 T01851060  RH  018%=      5-min Rain = 0
KVA1 250904Z 19005KT 19/M06 A2984 RMK A01 T01851060  RH  018%=      5-min Rain = 0
KVA1 250905Z 21005KT 18/M06 A2984 RMK A01 T01841060  RH  019%=      5-min Rain = 0
KVA1 250906Z 21005KT 18/M06 A2984 RMK A01 T01841060  RH  019%=      5-min Rain = 0
KVA1 250907Z 22006KT 18/M06 A2984 RMK A01 T01841060  RH  019%=      5-min Rain = 0
KVA1 250908Z 22006KT 18/M06 A2984 RMK A01 T01841060  RH  018%=      5-min Rain = 0
KVA1 250909Z 22005KT 19/M06 A2984 RMK A01 T01861060  RH  018%=      5-min Rain = 0
KVA1 250910Z 21005KT 19/M06 A2984 RMK A01 T01881060  RH  018%=      5-min Rain = 0
KVA1 250911Z 21006KT 19/M06 A2984 RMK A01 T01881061  RH  018%=      5-min Rain = 0
KVA1 250912Z 21005KT 19/M06 A2984 RMK A01 T01891061  RH  018%=      5-min Rain = 0
KVA1 250913Z 20005KT 19/M06 A2984 RMK A01 T01901060  RH  018%=      5-min Rain = 0
KVA1 250914Z 19003KT 19/M06 A2984 RMK A01 T01911060  RH  018%=      5-min Rain = 0
KVA1 250915Z 20003KT 19/M06 A2984 RMK A01 T01911060  RH  018%=      5-min Rain = 0
KVA1 250916Z 19004KT 19/M06 A2984 RMK A01 T01921060  RH  018%=      5-min Rain = 0
KVA1 250917Z 17004KT 19/M06 A2984 RMK A01 T01911060  RH  018%=      5-min Rain = 0
KVA1 250918Z 19004KT 19/M06 A2984 RMK A01 T01911060  RH  018%=      5-min Rain = 0
KVA1 250919Z 18004KT 19/M06 A2984 RMK A01 T01911060  RH  018%=      5-min Rain = 0
KVA1 250920Z 19005KT 19/M06 A2984 RMK A01 T01921060  RH  018%=      5-min Rain = 0
KVA1 250921Z 19005KT 19/M06 A2984 RMK A01 T01931060  RH  018%=      5-min Rain = 0
KVA1 250922Z 17005KT 19/M06 A2984 RMK A01 T01921060  RH  018%=      5-min Rain = 0
KVA1 250923Z 18005KT 19/M06 A2984 RMK A01 T01921061  RH  017%=      5-min Rain = 0
KVA1 250924Z 18006KT 19/M06 A2984 RMK A01 T01931060  RH  017%=      5-min Rain = 0
KVA1 250925Z 19006KT 19/M06 A2984 RMK A01 T01931060  RH  017%=      5-min Rain = 0
KVA1 250926Z 20005KT 20/M06 A2984 RMK A01 T01951059  RH  017%=      5-min Rain = 0
KVA1 250927Z 19005KT 20/M06 A2985 RMK A01 T01971059  RH  017%=      5-min Rain = 0
KVA1 250928Z 17006KT 20/M06 A2984 RMK A01 T01981059  RH  017%=      5-min Rain = 0
KVA1 250929Z 17006KT 20/M06 A2984 RMK A01 T01981059  RH  017%=      5-min Rain = 0
KVA1 250930Z 18006KT 20/M06 A2984 RMK A01 T02001060  RH  017%=      5-min Rain = 0
KVA1 250931Z 19006KT 20/M06 A2985 RMK A01 T02001060  RH  017%=      5-min Rain = 0
KVA1 250932Z 19004KT 20/M06 A2985 RMK A01 T02001059  RH  017%=      5-min Rain = 0
KVA1 250933Z 17007KT 20/M06 A2984 RMK A01 T02021058  RH  017%=      5-min Rain = 0
KVA1 250934Z 17006KT 20/M06 A2985 RMK A01 T02041058  RH  017%=      5-min Rain = 0
KVA1 250935Z 18007KT 21/M06 A2985 RMK A01 T02071058  RH  016%=      5-min Rain = 0
KVA1 250936Z 21007KT 21/M06 A2985 RMK A01 T02081059  RH  016%=      5-min Rain = 0
KVA1 250937Z 22005KT 21/M06 A2985 RMK A01 T02091058  RH  016%=      5-min Rain = 0
KVA1 250938Z 18006KT 21/M06 A2985 RMK A01 T02081059  RH  016%=      5-min Rain = 0
KVA1 250939Z 18007KT 21/M06 A2984 RMK A01 T02081058  RH  016%=      5-min Rain = 0
KVA1 250940Z 19006KT 21/M06 A2984 RMK A01 T02071059  RH  016%=      5-min Rain = 0
KVA1 250941Z 20007KT 20/M06 A2985 RMK A01 T02041059  RH  017%=      5-min Rain = 0
KVA1 250942Z 20008KT 20/M06 A2985 RMK A01 T02021059  RH  017%=      5-min Rain = 0
KVA1 250943Z 20007KT 20/M06 A2985 RMK A01 T02021058  RH  017%=      5-min Rain = 0
KVA1 250944Z 20006KT 20/M06 A2985 RMK A01 T02021058  RH  017%=      5-min Rain = 0
KVA1 250945Z 19006KT 20/M06 A2984 RMK A01 T02031058  RH  017%=      5-min Rain = 0
KVA1 250946Z 21006KT 20/M06 A2985 RMK A01 T02021058  RH  017%=      5-min Rain = 0
KVA1 250947Z 21004KT 20/M06 A2985 RMK A01 T02041057  RH  017%=      5-min Rain = 0
KVA1 250948Z 21005KT 21/M06 A2984 RMK A01 T02081056  RH  016%=      5-min Rain = 0
KVA1 250949Z 20006KT 21/M06 A2984 RMK A01 T02091057  RH  016%=      5-min Rain = 0
KVA1 250950Z 21006KT 21/M06 A2984 RMK A01 T02071058  RH  016%=      5-min Rain = 0
KVA1 250951Z 21006KT 21/M06 A2984 RMK A01 T02051058  RH  016%=      5-min Rain = 0
KVA1 250952Z 21006KT 20/M06 A2984 RMK A01 T02041057  RH  017%=      5-min Rain = 0
KVA1 250953Z 21007KT 20/M06 A2984 RMK A01 T02021058  RH  017%=      5-min Rain = 0
KVA1 250954Z 20007KT 20/M06 A2984 RMK A01 T01991057  RH  017%=      5-min Rain = 0
KVA1 250955Z 20008KT 20/M06 A2984 RMK A01 T01991057  RH  017%=      5-min Rain = 0
KVA1 250956Z 22007KT 20/M06 A2984 RMK A01 T02001057  RH  017%=      5-min Rain = 0
KVA1 250957Z 21007KT 20/M06 A2984 RMK A01 T01991057  RH  017%=      5-min Rain = 0
KVA1 250958Z 21005KT 20/M06 A2984 RMK A01 T01991057  RH  017%=      5-min Rain = 0
KVA1 250959Z 23005KT 20/M06 A2984 RMK A01 T01981057  RH  017%=      5-min Rain = 0
KVA1 251000Z 22006KT 20/M06 A2984 RMK A01 T01971058  RH  017%=      5-min Rain = 0
KVA1 251001Z 22005KT 20/M06 A2984 RMK A01 T01971057  RH  017%=      5-min Rain = 0
KVA1 251002Z 23006KT 20/M06 A2984 RMK A01 T01951058  RH  018%=      5-min Rain = 0
KVA1 251003Z 23007KT 19/M06 A2984 RMK A01 T01941058  RH  018%=      5-min Rain = 0
KVA1 251004Z 23006KT 19/M06 A2984 RMK A01 T01931058  RH  018%=      5-min Rain = 0
KVA1 251005Z 23007KT 19/M06 A2984 RMK A01 T01921058  RH  018%=      5-min Rain = 0
KVA1 251006Z 21006KT 19/M06 A2984 RMK A01 T01911058  RH  018%=      5-min Rain = 0
KVA1 251007Z 22005KT 19/M06 A2983 RMK A01 T01891058  RH  018%=      5-min Rain = 0
KVA1 251008Z 23005KT 19/M06 A2983 RMK A01 T01871059  RH  018%=      5-min Rain = 0
KVA1 251009Z 23006KT 19/M06 A2983 RMK A01 T01851059  RH  019%=      5-min Rain = 0
KVA1 251010Z 24006KT 18/M06 A2983 RMK A01 T01831059  RH  019%=      5-min Rain = 0
KVA1 251011Z 24006KT 18/M06 A2983 RMK A01 T01821059  RH  019%=      5-min Rain = 0
KVA1 251012Z 24006KT 18/M06 A2983 RMK A01 T01811059  RH  019%=      5-min Rain = 0
KVA1 251013Z 24005KT 18/M06 A2983 RMK A01 T01801058  RH  019%=      5-min Rain = 0
KVA1 251014Z 24005KT 18/M06 A2983 RMK A01 T01791059  RH  019%=      5-min Rain = 0
KVA1 251015Z 23006KT 18/M06 A2983 RMK A01 T01781058  RH  019%=      5-min Rain = 0
KVA1 251016Z 24007KT 18/M06 A2983 RMK A01 T01771058  RH  020%=      5-min Rain = 0
KVA1 251017Z 23007KT 18/M06 A2983 RMK A01 T01771058  RH  020%=      5-min Rain = 0
KVA1 251018Z 23007KT 18/M06 A2983 RMK A01 T01771057  RH  020%=      5-min Rain = 0
KVA1 251019Z 23007KT 18/M06 A2983 RMK A01 T01781057  RH  020%=      5-min Rain = 0
KVA1 251020Z 23007KT 18/M06 A2983 RMK A01 T01791057  RH  020%=      5-min Rain = 0
KVA1 251021Z 23007KT 18/M06 A2983 RMK A01 T01801056  RH  020%=      5-min Rain = 0
KVA1 251022Z 22008KT 18/M06 A2983 RMK A01 T01811056  RH  019%=      5-min Rain = 0
KVA1 251023Z 22007KT 18/M06 A2983 RMK A01 T01831055  RH  019%=      5-min Rain = 0
KVA1 251024Z 22006KT 19/M06 A2983 RMK A01 T01851055  RH  019%=      5-min Rain = 0
KVA1 251025Z 22007KT 19/M06 A2983 RMK A01 T01861055  RH  019%=      5-min Rain = 0
KVA1 251026Z 22007KT 19/M06 A2983 RMK A01 T01871055  RH  019%=      5-min Rain = 0
KVA1 251027Z 21008KT 19/M06 A2983 RMK A01 T01881055  RH  019%=      5-min Rain = 0
KVA1 251028Z 22008KT 19/M05 A2983 RMK A01 T01901054  RH  019%=      5-min Rain = 0
KVA1 251029Z 21008KT 19/M06 A2983 RMK A01 T01901055  RH  018%=      5-min Rain = 0
KVA1 251030Z 21008KT 19/M06 A2983 RMK A01 T01901055  RH  018%=      5-min Rain = 0
KVA1 251031Z 22009KT 19/M06 A2983 RMK A01 T01911055  RH  018%=      5-min Rain = 0
KVA1 251032Z 23009KT 19/M06 A2983 RMK A01 T01921055  RH  018%=      5-min Rain = 0
KVA1 251033Z 22006KT 19/M06 A2983 RMK A01 T01941055  RH  018%=      5-min Rain = 0
KVA1 251034Z 22006KT 19/M06 A2983 RMK A01 T01941055  RH  018%=      5-min Rain = 0
KVA1 251035Z 22008KT 19/M06 A2983 RMK A01 T01931056  RH  018%=      5-min Rain = 0
KVA1 251036Z 22007KT 19/M06 A2983 RMK A01 T01931056  RH  018%=      5-min Rain = 0
KVA1 251037Z 21007KT 19/M06 A2983 RMK A01 T01941055  RH  018%=      5-min Rain = 0
KVA1 251038Z 22009KT 19/M06 A2983 RMK A01 T01931056  RH  018%=      5-min Rain = 0
KVA1 251039Z 22007KT 19/M06 A2983 RMK A01 T01921056  RH  018%=      5-min Rain = 0
KVA1 251040Z 23008KT 19/M06 A2983 RMK A01 T01911056  RH  018%=      5-min Rain = 0
KVA1 251041Z 21007KT 19/M06 A2983 RMK A01 T01911056  RH  018%=      5-min Rain = 0
KVA1 251042Z 21007KT 19/M06 A2983 RMK A01 T01901056  RH  018%=      5-min Rain = 0
KVA1 251043Z 22007KT 19/M06 A2983 RMK A01 T01881056  RH  019%=      5-min Rain = 0
KVA1 251044Z 22007KT 19/M06 A2983 RMK A01 T01861056  RH  019%=      5-min Rain = 0
KVA1 251045Z 22008KT 19/M06 A2983 RMK A01 T01851056  RH  019%=      5-min Rain = 0
KVA1 251046Z 22007KT 19/M06 A2983 RMK A01 T01851055  RH  019%=      5-min Rain = 0
KVA1 251047Z 22008KT 19/M06 A2983 RMK A01 T01851055  RH  019%=      5-min Rain = 0
KVA1 251048Z 22007KT 19/M06 A2983 RMK A01 T01851055  RH  019%=      5-min Rain = 0
KVA1 251049Z 24008KT 19/M06 A2983 RMK A01 T01851055  RH  019%=      5-min Rain = 0
KVA1 251050Z 23007KT 19/M06 A2982 RMK A01 T01861055  RH  019%=      5-min Rain = 0
KVA1 251051Z 24007KT 19/M06 A2982 RMK A01 T01871055  RH  019%=      5-min Rain = 0
KVA1 251052Z 24007KT 19/M06 A2982 RMK A01 T01891055  RH  019%=      5-min Rain = 0
KVA1 251053Z 24008KT 19/M05 A2982 RMK A01 T01901054  RH  019%=      5-min Rain = 0
KVA1 251054Z 24007KT 19/M06 A2982 RMK A01 T01901055  RH  018%=      5-min Rain = 0
KVA1 251055Z 25008KT 19/M06 A2982 RMK A01 T01911055  RH  018%=      5-min Rain = 0
KVA1 251056Z 25009KT 19/M06 A2982 RMK A01 T01911055  RH  018%=      5-min Rain = 0
KVA1 251057Z 25009KT 19/M05 A2982 RMK A01 T01921054  RH  018%=      5-min Rain = 0
KVA1 251058Z 24008KT 19/M05 A2982 RMK A01 T01931054  RH  018%=      5-min Rain = 0
KVA1 251059Z 25008KT 19/M05 A2982 RMK A01 T01941054  RH  018%=      5-min Rain = 0
KVA1 251100Z 25009KT 19/M05 A2982 RMK A01 T01941054  RH  018%=      5-min Rain = 0
KVA1 251101Z 25009KT 20/M05 A2982 RMK A01 T01951054  RH  018%=      5-min Rain = 0
KVA1 251102Z 26011KT 20/M05 A2982 RMK A01 T01961053  RH  018%=      5-min Rain = 0
KVA1 251103Z 25010G15KT 20/M05 A2982 RMK A01 T01971053  RH  018%=      5-min Rain = 0
KVA1 251104Z 26011G17KT 20/M05 A2982 RMK A01 T01981053  RH  018%=      5-min Rain = 0
KVA1 251105Z 26012KT 20/M05 A2982 RMK A01 T01991053  RH  018%=      5-min Rain = 0
KVA1 251106Z 26012KT 20/M05 A2982 RMK A01 T02001053  RH  018%=      5-min Rain = 0
KVA1 251107Z 25011KT 20/M05 A2982 RMK A01 T02011053  RH  018%=      5-min Rain = 0
KVA1 251108Z 25011KT 20/M05 A2982 RMK A01 T02011052  RH  018%=      5-min Rain = 0
KVA1 251109Z 25011KT 20/M05 A2982 RMK A01 T02011053  RH  018%=      5-min Rain = 0
KVA1 251110Z 25010KT 20/M05 A2982 RMK A01 T02011052  RH  018%=      5-min Rain = 0
KVA1 251111Z 24009KT 20/M05 A2982 RMK A01 T02011052  RH  018%=      5-min Rain = 0
KVA1 251112Z 24009KT 20/M05 A2982 RMK A01 T02001053  RH  018%=      5-min Rain = 0
KVA1 251113Z 24008KT 20/M05 A2982 RMK A01 T02001053  RH  018%=      5-min Rain = 0
KVA1 251114Z 24007KT 20/M05 A2982 RMK A01 T01991053  RH  018%=      5-min Rain = 0
KVA1 251115Z 25007KT 20/M05 A2982 RMK A01 T01981053  RH  018%=      5-min Rain = 0
KVA1 251116Z 24008G13KT 20/M05 A2982 RMK A01 T01971052  RH  018%=      5-min Rain = 0
KVA1 251117Z 24010KT 20/M05 A2982 RMK A01 T01971053  RH  018%=      5-min Rain = 0
KVA1 251118Z 24008KT 20/M05 A2982 RMK A01 T01981052  RH  018%=      5-min Rain = 0
KVA1 251119Z 25008KT 20/M05 A2982 RMK A01 T01981052  RH  018%=      5-min Rain = 0
KVA1 251120Z 24008KT 20/M05 A2982 RMK A01 T01991052  RH  018%=      5-min Rain = 0
KVA1 251121Z 24007KT 20/M05 A2982 RMK A01 T01991052  RH  018%=      5-min Rain = 0
KVA1 251122Z 24006KT 20/M05 A2982 RMK A01 T01991052  RH  018%=      5-min Rain = 0
KVA1 251123Z 25007KT 20/M05 A2982 RMK A01 T01991052  RH  018%=      5-min Rain = 0
KVA1 251124Z 24006KT 20/M05 A2982 RMK A01 T01981052  RH  018%=      5-min Rain = 0
KVA1 251125Z 25008KT 20/M05 A2982 RMK A01 T01971052  RH  018%=      5-min Rain = 0
KVA1 251126Z 24006KT 20/M05 A2982 RMK A01 T01981052  RH  018%=      5-min Rain = 0
KVA1 251127Z 24004KT 20/M05 A2983 RMK A01 T01991052  RH  018%=      5-min Rain = 0
KVA1 251128Z 25005KT 20/M05 A2983 RMK A01 T01981052  RH  018%=      5-min Rain = 0
KVA1 251129Z 25006KT 20/M05 A2983 RMK A01 T01971052  RH  018%=      5-min Rain = 0
KVA1 251130Z 25006KT 20/M05 A2983 RMK A01 T01971052  RH  018%=      5-min Rain = 0
KVA1 251131Z 27004KT 20/M05 A2983 RMK A01 T01991052  RH  018%=      5-min Rain = 0
KVA1 251132Z 27004KT 20/M05 A2983 RMK A01 T01991051  RH  018%=      5-min Rain = 0
KVA1 251133Z 29003KT 20/M05 A2983 RMK A01 T02001052  RH  018%=      5-min Rain = 0
KVA1 251134Z 30002KT 20/M05 A2983 RMK A01 T02001052  RH  018%=      5-min Rain = 0
KVA1 251135Z 35002KT 20/M05 A2983 RMK A01 T02011051  RH  018%=      5-min Rain = 0
KVA1 251136Z 04003KT 20/M05 A2983 RMK A01 T02001052  RH  018%=      5-min Rain = 0
KVA1 251137Z 01003KT 20/M05 A2984 RMK A01 T01991052  RH  018%=      5-min Rain = 0
KVA1 251138Z 06006KT 20/M05 A2984 RMK A01 T01981052  RH  018%=      5-min Rain = 0
KVA1 251139Z 07006KT 20/M05 A2984 RMK A01 T01951052  RH  018%=      5-min Rain = 0
KVA1 251140Z 07007KT 19/M05 A2984 RMK A01 T01911052  RH  019%=      5-min Rain = 0
KVA1 251141Z 07006KT 19/M05 A2984 RMK A01 T01881052  RH  019%=      5-min Rain = 0
KVA1 251142Z 08007KT 19/M05 A2984 RMK A01 T01871051  RH  019%=      5-min Rain = 0
KVA1 251143Z 09008KT 19/M05 A2984 RMK A01 T01861051  RH  020%=      5-min Rain = 0
KVA1 251144Z 09007KT 19/M05 A2984 RMK A01 T01861051  RH  020%=      5-min Rain = 0
KVA1 251145Z 09008KT 19/M05 A2984 RMK A01 T01871051  RH  019%=      5-min Rain = 0
KVA1 251146Z 10007KT 19/M05 A2984 RMK A01 T01871051  RH  019%=      5-min Rain = 0
KVA1 251147Z 11009KT 19/M05 A2984 RMK A01 T01871051  RH  019%=      5-min Rain = 0
KVA1 251148Z 07007KT 19/M05 A2984 RMK A01 T01881051  RH  019%=      5-min Rain = 0
KVA1 251149Z 06005KT 19/M05 A2984 RMK A01 T01941050  RH  019%=      5-min Rain = 0
KVA1 251150Z 04006KT 20/M05 A2984 RMK A01 T01991050  RH  018%=      5-min Rain = 0
KVA1 251151Z 03004KT 20/M05 A2984 RMK A01 T02031050  RH  018%=      5-min Rain = 0
KVA1 251152Z 04004KT 21/M05 A2984 RMK A01 T02071050  RH  017%=      5-min Rain = 0
KVA1 251153Z 06005KT 21/M05 A2984 RMK A01 T02081050  RH  017%=      5-min Rain = 0
KVA1 251154Z 06005KT 21/M05 A2984 RMK A01 T02081050  RH  017%=      5-min Rain = 0
KVA1 251155Z 05005KT 21/M05 A2984 RMK A01 T02061050  RH  017%=      5-min Rain = 0
KVA1 251156Z 04005KT 20/M05 A2984 RMK A01 T02041050  RH  018%=      5-min Rain = 0
KVA1 251157Z 03004KT 20/M05 A2984 RMK A01 T02021050  RH  018%=      5-min Rain = 0
KVA1 251158Z 02004KT 20/M05 A2984 RMK A01 T01991051  RH  018%=      5-min Rain = 0
KVA1 251159Z 02002KT 20/M05 A2984 RMK A01 T01971050  RH  018%=      5-min Rain = 0
KVA1 251200Z 33001KT 20/M05 A2984 RMK A01 T01961050  RH  018%=      5-min Rain = 0
KVA1 251201Z 33003KT 20/M05 A2984 RMK A01 T01961050  RH  019%=      5-min Rain = 0
KVA1 251202Z 31004KT 20/M05 A2984 RMK A01 T01961049  RH  019%=      5-min Rain = 0
KVA1 251203Z 32003KT 20/M05 A2984 RMK A01 T01961050  RH  019%=      5-min Rain = 0
KVA1 251204Z 33004KT 20/M05 A2985 RMK A01 T01961050  RH  019%=      5-min Rain = 0
KVA1 251205Z 33005KT 20/M05 A2985 RMK A01 T01951050  RH  019%=      5-min Rain = 0
KVA1 251206Z 33005KT 19/M05 A2985 RMK A01 T01941050  RH  019%=      5-min Rain = 0
KVA1 251207Z 34005KT 19/M05 A2985 RMK A01 T01931050  RH  019%=      5-min Rain = 0
KVA1 251208Z 35004KT 19/M05 A2985 RMK A01 T01921051  RH  019%=      5-min Rain = 0
KVA1 251209Z 01004KT 19/M05 A2985 RMK A01 T01921051  RH  019%=      5-min Rain = 0
KVA1 251210Z 00005KT 19/M05 A2985 RMK A01 T01931051  RH  019%=      5-min Rain = 0
KVA1 251211Z 01004KT 20/M05 A2985 RMK A01 T01961050  RH  019%=      5-min Rain = 0
KVA1 251212Z 01005KT 20/M05 A2985 RMK A01 T01971050  RH  018%=      5-min Rain = 0
KVA1 251213Z 01004KT 20/M05 A2985 RMK A01 T01971050  RH  018%=      5-min Rain = 0
KVA1 251214Z 00005KT 20/M05 A2985 RMK A01 T01971050  RH  018%=      5-min Rain = 0
KVA1 251215Z 35004KT 20/M05 A2985 RMK A01 T01981050  RH  018%=      5-min Rain = 0
KVA1 251216Z 31003KT 20/M05 A2985 RMK A01 T02001049  RH  018%=      5-min Rain = 0
KVA1 251217Z 31004KT 20/M05 A2985 RMK A01 T02011049  RH  018%=      5-min Rain = 0
KVA1 251218Z 32003KT 20/M05 A2985 RMK A01 T01991049  RH  018%=      5-min Rain = 0
KVA1 251219Z 32001KT 20/M05 A2985 RMK A01 T01981049  RH  018%=      5-min Rain = 0
KVA1 251220Z 35000KT 20/M05 A2985 RMK A01 T01981049  RH  018%=      5-min Rain = 0
KVA1 251221Z 26001KT 20/M05 A2985 RMK A01 T01961049  RH  019%=      5-min Rain = 0
KVA1 251222Z 25002KT 19/M05 A2986 RMK A01 T01941048  RH  019%=      5-min Rain = 0
KVA1 251223Z 26002KT 19/M05 A2986 RMK A01 T01931048  RH  019%=      5-min Rain = 0
KVA1 251224Z 26002KT 19/M05 A2986 RMK A01 T01931048  RH  019%=      5-min Rain = 0
KVA1 251225Z 26001KT 19/M05 A2986 RMK A01 T01921048  RH  019%=      5-min Rain = 0
KVA1 251226Z 14001KT 19/M05 A2986 RMK A01 T01921049  RH  019%=      5-min Rain = 0
KVA1 251227Z 10002KT 19/M05 A2986 RMK A01 T01941050  RH  019%=      5-min Rain = 0
KVA1 251228Z 06003KT 20/M05 A2986 RMK A01 T01971049  RH  019%=      5-min Rain = 0
KVA1 251229Z 27002KT 20/M05 A2986 RMK A01 T02001049  RH  018%=      5-min Rain = 0
KVA1 251230Z 22002KT 20/M05 A2986 RMK A01 T02021049  RH  018%=      5-min Rain = 0
KVA1 251231Z 30002KT 21/M05 A2986 RMK A01 T02051049  RH  018%=      5-min Rain = 0
KVA1 251232Z 29005KT 21/M05 A2986 RMK A01 T02081047  RH  018%=      5-min Rain = 0
KVA1 251233Z 28004KT 21/M05 A2986 RMK A01 T02071046  RH  018%=      5-min Rain = 0
KVA1 251234Z 27006KT 20/M05 A2986 RMK A01 T02041047  RH  018%=      5-min Rain = 0
KVA1 251235Z 26006KT 20/M05 A2986 RMK A01 T02031047  RH  018%=      5-min Rain = 0
KVA1 251236Z 25005KT 20/M05 A2986 RMK A01 T02021047  RH  018%=      5-min Rain = 0
KVA1 251237Z 25006KT 20/M05 A2987 RMK A01 T02001046  RH  019%=      5-min Rain = 0
KVA1 251238Z 26006KT 20/M05 A2987 RMK A01 T01991045  RH  019%=      5-min Rain = 0
KVA1 251239Z 28005KT 20/M05 A2987 RMK A01 T01981046  RH  019%=      5-min Rain = 0
KVA1 251240Z 29006KT 20/M05 A2987 RMK A01 T01991046  RH  019%=      5-min Rain = 0
KVA1 251241Z 29006KT 20/M04 A2987 RMK A01 T02001044  RH  019%=      5-min Rain = 0
KVA1 251242Z 27007KT 20/M05 A2987 RMK A01 T02011045  RH  019%=      5-min Rain = 0
KVA1 251243Z 25009KT 20/M05 A2986 RMK A01 T02031045  RH  018%=      5-min Rain = 0
KVA1 251244Z 25009KT 21/M05 A2986 RMK A01 T02051047  RH  018%=      5-min Rain = 0
KVA1 251245Z 27010KT 21/M05 A2986 RMK A01 T02081048  RH  017%=      5-min Rain = 0
KVA1 251246Z 28013KT 21/M05 A2986 RMK A01 T02121048  RH  017%=      5-min Rain = 0
KVA1 251247Z 27007KT 21/M05 A2986 RMK A01 T02131048  RH  017%=      5-min Rain = 0
KVA1 251248Z 26008KT 21/M05 A2986 RMK A01 T02141046  RH  017%=      5-min Rain = 0
KVA1 251249Z 26009KT 21/M05 A2986 RMK A01 T02141047  RH  017%=      5-min Rain = 0
KVA1 251250Z 26012KT 21/M05 A2986 RMK A01 T02141048  RH  017%=      5-min Rain = 0
KVA1 251251Z 27011KT 22/M05 A2986 RMK A01 T02151048  RH  017%=      5-min Rain = 0
KVA1 251252Z 26011KT 22/M05 A2986 RMK A01 T02151048  RH  017%=      5-min Rain = 0
KVA1 251253Z 26012KT 21/M05 A2986 RMK A01 T02141049  RH  017%=      5-min Rain = 0
KVA1 251254Z 26010KT 22/M05 A2986 RMK A01 T02151049  RH  017%=      5-min Rain = 0
KVA1 251255Z 25010KT 22/M05 A2986 RMK A01 T02151049  RH  017%=      5-min Rain = 0
KVA1 251256Z 25010KT 22/M05 A2986 RMK A01 T02151049  RH  017%=      5-min Rain = 0
KVA1 251257Z 25010KT 22/M05 A2986 RMK A01 T02161048  RH  017%=      5-min Rain = 0
KVA1 251258Z 26010KT 22/M05 A2986 RMK A01 T02161048  RH  017%=      5-min Rain = 0
KVA1 251259Z 26008KT 22/M05 A2987 RMK A01 T02161048  RH  017%=      5-min Rain = 0
KVA1 251300Z 26007KT 22/M05 A2987 RMK A01 T02151048  RH  017%=      5-min Rain = 0
KVA1 251301Z 27009KT 22/M05 A2987 RMK A01 T02151047  RH  017%=      5-min Rain = 0
KVA1 251302Z 26005KT 22/M05 A2987 RMK A01 T02151046  RH  017%=      5-min Rain = 0
KVA1 251303Z 27005KT 22/M05 A2987 RMK A01 T02151045  RH  017%=      5-min Rain = 0
KVA1 251304Z 28004KT 22/M05 A2987 RMK A01 T02151045  RH  017%=      5-min Rain = 0
KVA1 251305Z 27007KT 22/M05 A2987 RMK A01 T02151045  RH  017%=      5-min Rain = 0
KVA1 251306Z 27005KT 22/M05 A2987 RMK A01 T02161046  RH  017%=      5-min Rain = 0
KVA1 251307Z 27006KT 22/M05 A2987 RMK A01 T02161046  RH  017%=      5-min Rain = 0
KVA1 251308Z 25006KT 22/M05 A2987 RMK A01 T02171046  RH  017%=      5-min Rain = 0
KVA1 251309Z 25007KT 22/M05 A2987 RMK A01 T02181047  RH  017%=      5-min Rain = 0
KVA1 251310Z 27006KT 22/M05 A2987 RMK A01 T02181047  RH  017%=      5-min Rain = 0
KVA1 251311Z 27006KT 22/M05 A2987 RMK A01 T02191045  RH  017%=      5-min Rain = 0
KVA1 251312Z 26006KT 22/M05 A2987 RMK A01 T02191046  RH  017%=      5-min Rain = 0
KVA1 251313Z 27005KT 22/M05 A2987 RMK A01 T02191046  RH  017%=      5-min Rain = 0
KVA1 251314Z 27005KT 22/M04 A2987 RMK A01 T02191043  RH  017%=      5-min Rain = 0
KVA1 251315Z 28004KT 22/M04 A2987 RMK A01 T02201043  RH  017%=      5-min Rain = 0
KVA1 251316Z 33003KT 22/M04 A2987 RMK A01 T02211041  RH  017%=      5-min Rain = 0
KVA1 251317Z 02005KT 22/M04 A2987 RMK A01 T02231039  RH  017%=      5-min Rain = 0
KVA1 251318Z 02005KT 22/M04 A2987 RMK A01 T02231044  RH  016%=      5-min Rain = 0
KVA1 251319Z 05006KT 22/M05 A2987 RMK A01 T02231045  RH  016%=      5-min Rain = 0
KVA1 251320Z 06005KT 22/M04 A2987 RMK A01 T02221043  RH  017%=      5-min Rain = 0
KVA1 251321Z 06006KT 22/M04 A2987 RMK A01 T02211043  RH  017%=      5-min Rain = 0
KVA1 251322Z 06006KT 22/M04 A2987 RMK A01 T02211044  RH  017%=      5-min Rain = 0
KVA1 251323Z 06005KT 22/M04 A2987 RMK A01 T02211044  RH  017%=      5-min Rain = 0
KVA1 251324Z 04004KT 22/M04 A2987 RMK A01 T02201044  RH  017%=      5-min Rain = 0
KVA1 251325Z 04003KT 22/M05 A2987 RMK A01 T02211045  RH  016%=      5-min Rain = 0
KVA1 251326Z 04001KT 22/M04 A2987 RMK A01 T02211044  RH  017%=      5-min Rain = 0
KVA1 251327Z 35001KT 22/M04 A2987 RMK A01 T02221044  RH  016%=      5-min Rain = 0
KVA1 251328Z 31001KT 22/M05 A2987 RMK A01 T02221046  RH  016%=      5-min Rain = 0
KVA1 251329Z 26002KT 22/M05 A2987 RMK A01 T02221047  RH  016%=      5-min Rain = 0
KVA1 251330Z 26003KT 22/M05 A2987 RMK A01 T02221045  RH  016%=      5-min Rain = 0
KVA1 251331Z 25005KT 22/M04 A2987 RMK A01 T02221042  RH  017%=      5-min Rain = 0
KVA1 251332Z 26007KT 22/M05 A2987 RMK A01 T02231045  RH  016%=      5-min Rain = 0
KVA1 251333Z 25007KT 22/M05 A2987 RMK A01 T02231047  RH  016%=      5-min Rain = 0
KVA1 251334Z 23004KT 22/M05 A2987 RMK A01 T02231048  RH  016%=      5-min Rain = 0
KVA1 251335Z 21002KT 22/M05 A2987 RMK A01 T02221049  RH  016%=      5-min Rain = 0
KVA1 251336Z 24005KT 22/M05 A2987 RMK A01 T02231048  RH  016%=      5-min Rain = 0
KVA1 251337Z 26004KT 22/M05 A2987 RMK A01 T02241045  RH  016%=      5-min Rain = 0
KVA1 251338Z 26004KT 22/M05 A2987 RMK A01 T02241046  RH  016%=      5-min Rain = 0
KVA1 251339Z 26004KT 22/M05 A2987 RMK A01 T02241046  RH  016%=      5-min Rain = 0
KVA1 251340Z 26004KT 22/M05 A2987 RMK A01 T02241046  RH  016%=      5-min Rain = 0
KVA1 251341Z 25004KT 22/M05 A2987 RMK A01 T02241046  RH  016%=      5-min Rain = 0
KVA1 251342Z 26005KT 22/M05 A2987 RMK A01 T02241046  RH  016%=      5-min Rain = 0
KVA1 251343Z 24006KT 22/M05 A2987 RMK A01 T02241046  RH  016%=      5-min Rain = 0
KVA1 251344Z 25006KT 22/M05 A2987 RMK A01 T02241046  RH  016%=      5-min Rain = 0
KVA1 251345Z 25007KT 22/M05 A2987 RMK A01 T02241045  RH  016%=      5-min Rain = 0
KVA1 251346Z 24006KT 23/M04 A2987 RMK A01 T02251044  RH  016%=      5-min Rain = 0
KVA1 251347Z 24007KT 23/M04 A2987 RMK A01 T02261044  RH  016%=      5-min Rain = 0
KVA1 251348Z 25006KT 23/M04 A2987 RMK A01 T02261044  RH  016%=      5-min Rain = 0
KVA1 251349Z 26006KT 23/M05 A2987 RMK A01 T02271045  RH  016%=      5-min Rain = 0
KVA1 251350Z 28006KT 23/M05 A2987 RMK A01 T02271045  RH  016%=      5-min Rain = 0
KVA1 251351Z 29006KT 23/M04 A2987 RMK A01 T02271044  RH  016%=      5-min Rain = 0
KVA1 251352Z 29006KT 23/M04 A2987 RMK A01 T02271044  RH  016%=      5-min Rain = 0
KVA1 251353Z 30003KT 23/M05 A2987 RMK A01 T02271045  RH  016%=      5-min Rain = 0
KVA1 251354Z 28005KT 23/M04 A2988 RMK A01 T02271044  RH  016%=      5-min Rain = 0
KVA1 251355Z 27005KT 23/M05 A2988 RMK A01 T02271045  RH  016%=      5-min Rain = 0
KVA1 251356Z 26004KT 23/M04 A2988 RMK A01 T02271044  RH  016%=      5-min Rain = 0
KVA1 251357Z 25004KT 23/M05 A2988 RMK A01 T02291046  RH  016%=      5-min Rain = 0
KVA1 251358Z 23005KT 23/M05 A2988 RMK A01 T02301046  RH  016%=      5-min Rain = 0
KVA1 251359Z 21004KT 23/M05 A2988 RMK A01 T02301047  RH  015%=      5-min Rain = 0
KVA1 251400Z 22002KT 23/M05 A2988 RMK A01 T02281049  RH  015%=      5-min Rain = 0
KVA1 251401Z 20000KT 23/M05 A2988 RMK A01 T02271049  RH  015%=      5-min Rain = 0
KVA1 251402Z 08000KT 23/M05 A2988 RMK A01 T02271050  RH  015%=      5-min Rain = 0
KVA1 251403Z 08000KT 23/M05 A2988 RMK A01 T02281049  RH  015%=      5-min Rain = 0
KVA1 251404Z 06003G8KT 23/M05 A2988 RMK A01 T02301048  RH  015%=      5-min Rain = 0
KVA1 251405Z 08006KT 23/M04 A2988 RMK A01 T02311039  RH  016%=      5-min Rain = 0
KVA1 251406Z 05007KT 23/M03 A2988 RMK A01 T02321032  RH  017%=      5-min Rain = 0
KVA1 251407Z 06007KT 23/M03 A2988 RMK A01 T02311031  RH  017%=      5-min Rain = 0
KVA1 251408Z 05010KT 23/M03 A2988 RMK A01 T02281031  RH  018%=      5-min Rain = 0
KVA1 251409Z 04010KT 22/M03 A2988 RMK A01 T02231030  RH  018%=      5-min Rain = 0
KVA1 251410Z 05009KT 22/M03 A2988 RMK A01 T02221029  RH  018%=      5-min Rain = 0
KVA1 251411Z 07008KT 22/M03 A2988 RMK A01 T02201030  RH  019%=      5-min Rain = 0
KVA1 251412Z 07008KT 22/M03 A2988 RMK A01 T02171028  RH  019%=      5-min Rain = 0
KVA1 251413Z 06008KT 22/M03 A2988 RMK A01 T02181028  RH  019%=      5-min Rain = 0
KVA1 251414Z 06008KT 22/M03 A2988 RMK A01 T02171028  RH  019%=      5-min Rain = 0
KVA1 251415Z 07007KT 22/M03 A2988 RMK A01 T02161027  RH  019%=      5-min Rain = 0
KVA1 251416Z 06006KT 22/M03 A2988 RMK A01 T02161026  RH  020%=      5-min Rain = 0
KVA1 251417Z 07007KT 22/M02 A2988 RMK A01 T02171024  RH  020%=      5-min Rain = 0
KVA1 251418Z 07007KT 22/M02 A2988 RMK A01 T02191024  RH  019%=      5-min Rain = 0
KVA1 251419Z 06004KT 22/M02 A2988 RMK A01 T02201024  RH  019%=      5-min Rain = 0
KVA1 251420Z 05007KT 22/M02 A2988 RMK A01 T02201024  RH  019%=      5-min Rain = 0
KVA1 251421Z 05008KT 22/M03 A2988 RMK A01 T02191025  RH  019%=      5-min Rain = 0
KVA1 251422Z 05005KT 22/M03 A2988 RMK A01 T02181025  RH  020%=      5-min Rain = 0
KVA1 251423Z 07005KT 22/M02 A2988 RMK A01 T02191021  RH  020%=      5-min Rain = 0
KVA1 251424Z 08007KT 22/M02 A2988 RMK A01 T02201020  RH  020%=      5-min Rain = 0
KVA1 251425Z 08008KT 22/M02 A2988 RMK A01 T02221019  RH  020%=      5-min Rain = 0
KVA1 251426Z 07006KT 22/M02 A2988 RMK A01 T02221017  RH  020%=      5-min Rain = 0
KVA1 251427Z 06007KT 22/M02 A2988 RMK A01 T02231018  RH  020%=      5-min Rain = 0
KVA1 251428Z 07005KT 22/M02 A2988 RMK A01 T02221016  RH  020%=      5-min Rain = 0
KVA1 251429Z 05005KT 22/M01 A2988 RMK A01 T02221012  RH  021%=      5-min Rain = 0
KVA1 251430Z 05007KT 23/M01 A2988 RMK A01 T02251012  RH  021%=      5-min Rain = 0
KVA1 251431Z 05009KT 23/M01 A2988 RMK A01 T02261010  RH  021%=      5-min Rain = 0
KVA1 251432Z 06007KT 23/M01 A2989 RMK A01 T02251012  RH  020%=      5-min Rain = 0
KVA1 251433Z 04007KT 22/M01 A2989 RMK A01 T02241008  RH  021%=      5-min Rain = 0
KVA1 251434Z 04006KT 22/M01 A2989 RMK A01 T02231009  RH  021%=      5-min Rain = 0
KVA1 251435Z 04005KT 22/M01 A2989 RMK A01 T02221006  RH  022%=      5-min Rain = 0
KVA1 251436Z 05007KT 22/M01 A2989 RMK A01 T02231005  RH  022%=      5-min Rain = 0
KVA1 251437Z 04008KT 22/00 A2989 RMK A01 T02240001  RH  023%=      5-min Rain = 0
KVA1 251438Z 03007KT 23/00 A2989 RMK A01 T02250004  RH  023%=      5-min Rain = 0
KVA1 251439Z 03006KT 23/00 A2989 RMK A01 T02260004  RH  023%=      5-min Rain = 0
KVA1 251440Z 05008KT 23/M00 A2989 RMK A01 T02261001  RH  022%=      5-min Rain = 0
KVA1 251441Z 03009KT 23/00 A2989 RMK A01 T02270001  RH  022%=      5-min Rain = 0
KVA1 251442Z 04009KT 23/00 A2989 RMK A01 T022600-0  RH  022%=      5-min Rain = 0
KVA1 251443Z 04009KT 23/00 A2989 RMK A01 T02270001  RH  022%=      5-min Rain = 0
KVA1 251444Z 04007KT 23/00 A2989 RMK A01 T02280003  RH  023%=      5-min Rain = 0
KVA1 251445Z 03007KT 23/01 A2989 RMK A01 T02290005  RH  023%=      5-min Rain = 0
KVA1 251446Z 05007KT 23/01 A2989 RMK A01 T02280010  RH  024%=      5-min Rain = 0
KVA1 251447Z 04006KT 23/01 A2989 RMK A01 T02280008  RH  023%=      5-min Rain = 0
KVA1 251448Z 04006KT 23/01 A2989 RMK A01 T02280006  RH  023%=      5-min Rain = 0
KVA1 251449Z 03008KT 23/01 A2989 RMK A01 T02280012  RH  024%=      5-min Rain = 0
KVA1 251450Z 04009KT 23/02 A2989 RMK A01 T02280018  RH  025%=      5-min Rain = 0
KVA1 251451Z 03009KT 23/02 A2989 RMK A01 T02280019  RH  025%=      5-min Rain = 0
KVA1 251452Z 05009KT 23/02 A2989 RMK A01 T02280022  RH  026%=      5-min Rain = 0
KVA1 251453Z 05009KT 23/02 A2989 RMK A01 T02260017  RH  025%=      5-min Rain = 0
KVA1 251454Z 07008KT 23/02 A2989 RMK A01 T02280018  RH  025%=      5-min Rain = 0
KVA1 251455Z 05008KT 23/02 A2989 RMK A01 T02270020  RH  025%=      5-min Rain = 0
KVA1 251456Z 03008KT 23/02 A2989 RMK A01 T02280018  RH  025%=      5-min Rain = 0
KVA1 251457Z 03008KT 23/02 A2989 RMK A01 T02290016  RH  025%=      5-min Rain = 0
KVA1 251458Z 04010KT 23/02 A2989 RMK A01 T02300019  RH  025%=      5-min Rain = 0
KVA1 251459Z 05010KT 23/01 A2989 RMK A01 T02300011  RH  024%=      5-min Rain = 0
KVA1 251500Z 05009KT 23/01 A2989 RMK A01 T02280012  RH  024%=      5-min Rain = 0
KVA1 251501Z 05010KT 23/01 A2989 RMK A01 T02290013  RH  024%=      5-min Rain = 0
KVA1 251502Z 04009KT 23/01 A2989 RMK A01 T02280013  RH  024%=      5-min Rain = 0
KVA1 251503Z 06007KT 23/01 A2989 RMK A01 T02280014  RH  024%=      5-min Rain = 0
KVA1 251504Z 06008KT 23/01 A2989 RMK A01 T02270011  RH  024%=      5-min Rain = 0
KVA1 251505Z 05010KT 23/01 A2989 RMK A01 T02270012  RH  024%=      5-min Rain = 0
KVA1 251506Z 04009KT 23/02 A2989 RMK A01 T02280018  RH  025%=      5-min Rain = 0
KVA1 251507Z 04009KT 23/02 A2989 RMK A01 T02290018  RH  025%=      5-min Rain = 0
KVA1 251508Z 03008KT 23/02 A2989 RMK A01 T02290015  RH  024%=      5-min Rain = 0
KVA1 251509Z 03007KT 23/01 A2989 RMK A01 T02290009  RH  023%=      5-min Rain = 0
KVA1 251510Z 04008KT 23/01 A2989 RMK A01 T02290010  RH  024%=      5-min Rain = 0
KVA1 251511Z 06007KT 23/01 A2989 RMK A01 T02290011  RH  024%=      5-min Rain = 0
KVA1 251512Z 04008KT 23/01 A2989 RMK A01 T02290014  RH  024%=      5-min Rain = 0
KVA1 251513Z 05007KT 23/02 A2989 RMK A01 T02300017  RH  025%=      5-min Rain = 0
KVA1 251514Z 04008KT 23/02 A299 RMK A01 T02330016  RH  024%=      5-min Rain = 0
KVA1 251515Z 04009KT 23/02 A299 RMK A01 T02340015  RH  024%=      5-min Rain = 0
KVA1 251516Z 05006KT 23/02 A299 RMK A01 T02330017  RH  024%=      5-min Rain = 0
KVA1 251517Z 04009KT 23/02 A299 RMK A01 T02330023  RH  025%=      5-min Rain = 0
KVA1 251518Z 05006KT 23/03 A299 RMK A01 T02320026  RH  026%=      5-min Rain = 0
KVA1 251519Z 06007KT 23/04 A299 RMK A01 T02310036  RH  028%=      5-min Rain = 0
KVA1 251520Z 05008KT 23/03 A299 RMK A01 T02320034  RH  027%=      5-min Rain = 0
KVA1 251521Z 05008KT 23/03 A299 RMK A01 T02320029  RH  026%=      5-min Rain = 0
KVA1 251522Z 04010KT 23/03 A299 RMK A01 T02300029  RH  027%=      5-min Rain = 0
KVA1 251523Z 03008KT 23/02 A299 RMK A01 T02300021  RH  025%=      5-min Rain = 0
KVA1 251524Z 03007KT 23/02 A299 RMK A01 T02330019  RH  025%=      5-min Rain = 0
KVA1 251525Z 03007KT 24/02 A299 RMK A01 T02370018  RH  024%=      5-min Rain = 0
KVA1 251526Z 02006KT 24/02 A299 RMK A01 T02370016  RH  023%=      5-min Rain = 0
KVA1 251527Z 04010KT 24/02 A299 RMK A01 T02370022  RH  025%=      5-min Rain = 0
KVA1 251528Z 04009KT 24/03 A299 RMK A01 T02360030  RH  026%=      5-min Rain = 0
KVA1 251529Z 04008KT 24/03 A299 RMK A01 T02360029  RH  026%=      5-min Rain = 0
KVA1 251530Z 03008KT 24/03 A2991 RMK A01 T02370030  RH  026%=      5-min Rain = 0
KVA1 251531Z 02011KT 24/03 A2991 RMK A01 T02360025  RH  025%=      5-min Rain = 0
KVA1 251532Z 02008KT 24/02 A2991 RMK A01 T02360020  RH  024%=      5-min Rain = 0
KVA1 251533Z 03008KT 24/02 A2991 RMK A01 T02360018  RH  024%=      5-min Rain = 0
KVA1 251534Z 04008KT 24/02 A2991 RMK A01 T02350019  RH  024%=      5-min Rain = 0
KVA1 251535Z 03008KT 23/02 A2991 RMK A01 T02340023  RH  025%=      5-min Rain = 0
KVA1 251536Z 04009KT 24/02 A2991 RMK A01 T02350020  RH  024%=      5-min Rain = 0
KVA1 251537Z 07007KT 24/02 A2991 RMK A01 T02350016  RH  024%=      5-min Rain = 0
KVA1 251538Z 07006KT 24/01 A2991 RMK A01 T02350013  RH  023%=      5-min Rain = 0
KVA1 251539Z 06006KT 23/01 A2991 RMK A01 T02330014  RH  024%=      5-min Rain = 0
KVA1 251540Z 07004KT 23/02 A2991 RMK A01 T02330019  RH  025%=      5-min Rain = 0
KVA1 251541Z 05006KT 23/02 A2991 RMK A01 T02330021  RH  025%=      5-min Rain = 0
KVA1 251542Z 06008KT 24/02 A2991 RMK A01 T02360021  RH  024%=      5-min Rain = 0
KVA1 251543Z 07007KT 24/02 A2991 RMK A01 T02390017  RH  023%=      5-min Rain = 0
KVA1 251544Z 07005KT 24/02 A2991 RMK A01 T02380015  RH  023%=      5-min Rain = 0
KVA1 251545Z 01009KT 24/02 A2991 RMK A01 T02390020  RH  024%=      5-min Rain = 0
KVA1 251546Z 02009KT 24/02 A2991 RMK A01 T02420020  RH  023%=      5-min Rain = 0
KVA1 251547Z 02008KT 24/02 A2991 RMK A01 T02410017  RH  023%=      5-min Rain = 0
KVA1 251548Z 03008KT 24/02 A2991 RMK A01 T02400015  RH  023%=      5-min Rain = 0
KVA1 251549Z 02007KT 24/01 A2991 RMK A01 T02390014  RH  023%=      5-min Rain = 0
KVA1 251550Z 03010KT 24/01 A2991 RMK A01 T02430014  RH  022%=      5-min Rain = 0
KVA1 251551Z 04007KT 24/01 A2991 RMK A01 T02420011  RH  022%=      5-min Rain = 0
KVA1 251552Z 05009KT 24/02 A2991 RMK A01 T02410015  RH  023%=      5-min Rain = 0
KVA1 251553Z 03009KT 24/02 A2991 RMK A01 T02390016  RH  023%=      5-min Rain = 0
KVA1 251554Z 03007KT 24/02 A2991 RMK A01 T02390015  RH  023%=      5-min Rain = 0
KVA1 251555Z 04006KT 24/02 A2991 RMK A01 T02380018  RH  024%=      5-min Rain = 0
KVA1 251556Z 03005KT 24/02 A2991 RMK A01 T02380015  RH  023%=      5-min Rain = 0
KVA1 251557Z 02004KT 24/01 A2991 RMK A01 T02380013  RH  023%=      5-min Rain = 0
KVA1 251558Z 03003KT 24/00 A2991 RMK A01 T02380004  RH  021%=      5-min Rain = 0
KVA1 251559Z 04006KT 24/01 A2991 RMK A01 T02390009  RH  022%=      5-min Rain = 0
KVA1 251600Z 05006KT 24/01 A2991 RMK A01 T02420010  RH  022%=      5-min Rain = 0
KVA1 251601Z 05005G11KT 24/01 A2991 RMK A01 T02420010  RH  022%=      5-min Rain = 0
KVA1 251602Z 05006KT 24/02 A2991 RMK A01 T02410021  RH  024%=      5-min Rain = 0
KVA1 251603Z 06004G9KT 24/02 A2991 RMK A01 T02410024  RH  024%=      5-min Rain = 0
KVA1 251604Z 07006KT 24/02 A2991 RMK A01 T02430024  RH  024%=      5-min Rain = 0
KVA1 251605Z 09005KT 24/02 A2991 RMK A01 T02430024  RH  024%=      5-min Rain = 0
KVA1 251606Z 08004KT 24/02 A2991 RMK A01 T02430023  RH  024%=      5-min Rain = 0
KVA1 251607Z 04006KT 24/02 A2991 RMK A01 T02430024  RH  024%=      5-min Rain = 0
KVA1 251608Z 03006KT 24/02 A2991 RMK A01 T02440018  RH  023%=      5-min Rain = 0
KVA1 251609Z 04007KT 24/02 A2991 RMK A01 T02440016  RH  022%=      5-min Rain = 0
KVA1 251610Z 02009KT 25/01 A2991 RMK A01 T02460010  RH  021%=      5-min Rain = 0
KVA1 251611Z 02008KT 25/01 A2991 RMK A01 T02460006  RH  021%=      5-min Rain = 0
KVA1 251612Z 04006KT 25/01 A2991 RMK A01 T02450006  RH  021%=      5-min Rain = 0
KVA1 251613Z 07004KT 24/01 A2991 RMK A01 T02430007  RH  021%=      5-min Rain = 0
KVA1 251614Z 08004KT 24/01 A2991 RMK A01 T02410009  RH  022%=      5-min Rain = 0
KVA1 251615Z 08004KT 24/01 A2991 RMK A01 T02420007  RH  021%=      5-min Rain = 0
KVA1 251616Z 09003KT 24/01 A2991 RMK A01 T02430005  RH  021%=      5-min Rain = 0
KVA1 251617Z 07002KT 24/01 A2991 RMK A01 T02430008  RH  021%=      5-min Rain = 0
KVA1 251618Z 08002KT 24/01 A2991 RMK A01 T02440010  RH  022%=      5-min Rain = 0
KVA1 251619Z 01002KT 25/01 A2991 RMK A01 T02450010  RH  021%=      5-min Rain = 0
KVA1 251620Z 02006KT 25/01 A2991 RMK A01 T02460010  RH  021%=      5-min Rain = 0
KVA1 251621Z 00006KT 25/01 A2991 RMK A01 T02470014  RH  022%=      5-min Rain = 0
KVA1 251622Z 00008KT 25/02 A2991 RMK A01 T02480017  RH  022%=      5-min Rain = 0
KVA1 251623Z 00009KT 25/02 A2991 RMK A01 T02520017  RH  022%=      5-min Rain = 0
KVA1 251624Z 03006KT 25/02 A2991 RMK A01 T02510015  RH  021%=      5-min Rain = 0
KVA1 251625Z 04005KT 25/02 A2991 RMK A01 T02500016  RH  022%=      5-min Rain = 0
KVA1 251626Z 04008KT 25/02 A2991 RMK A01 T02490017  RH  022%=      5-min Rain = 0
KVA1 251627Z 03008KT 25/02 A2991 RMK A01 T02490018  RH  022%=      5-min Rain = 0
KVA1 251628Z 00009KT 25/02 A2991 RMK A01 T02490017  RH  022%=      5-min Rain = 0
KVA1 251629Z 01006KT 25/02 A2991 RMK A01 T02500018  RH  022%=      5-min Rain = 0
KVA1 251630Z 34005KT 25/02 A2991 RMK A01 T02490018  RH  022%=      5-min Rain = 0
KVA1 251631Z 35005KT 25/02 A2991 RMK A01 T02490019  RH  022%=      5-min Rain = 0
KVA1 251632Z 01006KT 25/02 A2991 RMK A01 T02510018  RH  022%=      5-min Rain = 0
KVA1 251633Z 03005KT 25/02 A2991 RMK A01 T02510016  RH  021%=      5-min Rain = 0
KVA1 251634Z 03005KT 25/02 A2991 RMK A01 T02520016  RH  021%=      5-min Rain = 0
KVA1 251635Z 04004KT 25/02 A2991 RMK A01 T02500017  RH  022%=      5-min Rain = 0
KVA1 251636Z 04009KT 25/02 A2991 RMK A01 T02510018  RH  022%=      5-min Rain = 0
KVA1 251637Z 05008KT 25/02 A2991 RMK A01 T02510021  RH  022%=      5-min Rain = 0
KVA1 251638Z 06003KT 25/02 A2991 RMK A01 T02490024  RH  023%=      5-min Rain = 0
KVA1 251639Z 04008G13KT 25/03 A2991 RMK A01 T02480025  RH  023%=      5-min Rain = 0
KVA1 251640Z 04011KT 25/03 A2991 RMK A01 T02510029  RH  024%=      5-min Rain = 0
KVA1 251641Z 04012KT 26/03 A2991 RMK A01 T02560029  RH  023%=      5-min Rain = 0
KVA1 251642Z 04010KT 26/03 A2991 RMK A01 T02580031  RH  023%=      5-min Rain = 0
KVA1 251643Z 06011KT 26/03 A2991 RMK A01 T02580033  RH  023%=      5-min Rain = 0
KVA1 251644Z 06009KT 26/03 A2991 RMK A01 T02560033  RH  024%=      5-min Rain = 0
KVA1 251645Z 06008KT 25/03 A2992 RMK A01 T02540032  RH  024%=      5-min Rain = 0
KVA1 251646Z 06008KT 25/03 A2992 RMK A01 T02540031  RH  024%=      5-min Rain = 0
KVA1 251647Z 07007KT 25/03 A2992 RMK A01 T02540030  RH  023%=      5-min Rain = 0
KVA1 251648Z 03008KT 25/03 A2992 RMK A01 T02530031  RH  024%=      5-min Rain = 0
KVA1 251649Z 03007KT 25/03 A2992 RMK A01 T02540031  RH  024%=      5-min Rain = 0
KVA1 251650Z 04006KT 25/03 A2992 RMK A01 T02520030  RH  024%=      5-min Rain = 0
KVA1 251651Z 03009G14KT 25/03 A2992 RMK A01 T02500031  RH  024%=      5-min Rain = 0
KVA1 251652Z 03009KT 25/03 A2992 RMK A01 T02510032  RH  024%=      5-min Rain = 0
KVA1 251653Z 02008KT 25/03 A2992 RMK A01 T02520033  RH  024%=      5-min Rain = 0
KVA1 251654Z 04008KT 25/03 A2992 RMK A01 T02510033  RH  024%=      5-min Rain = 0
KVA1 251655Z 04010KT 25/03 A2992 RMK A01 T02520034  RH  024%=      5-min Rain = 0
KVA1 251656Z 05009KT 25/04 A2992 RMK A01 T02510035  RH  025%=      5-min Rain = 0
KVA1 251657Z 06011G18KT 25/04 A2992 RMK A01 T02500036  RH  025%=      5-min Rain = 0
KVA1 251658Z 06011G17KT 25/04 A2992 RMK A01 T02500038  RH  025%=      5-min Rain = 0
KVA1 251659Z 06012KT 25/04 A2992 RMK A01 T02510037  RH  025%=      5-min Rain = 0
KVA1 251700Z 05011G16KT 25/04 A2992 RMK A01 T02510037  RH  025%=      5-min Rain = 0
KVA1 251701Z 06011G16KT 25/04 A2992 RMK A01 T02510037  RH  025%=      5-min Rain = 0
KVA1 251702Z 05010KT 25/04 A2992 RMK A01 T02530037  RH  025%=      5-min Rain = 0
KVA1 251703Z 05012KT 25/04 A2992 RMK A01 T02530035  RH  024%=      5-min Rain = 0
KVA1 251704Z 06011KT 25/04 A2992 RMK A01 T02530036  RH  025%=      5-min Rain = 0
KVA1 251705Z 04010KT 25/04 A2992 RMK A01 T02510035  RH  025%=      5-min Rain = 0
KVA1 251706Z 04009G14KT 25/04 A2993 RMK A01 T02490035  RH  025%=      5-min Rain = 0
KVA1 251707Z 04009KT 25/04 A2993 RMK A01 T02530036  RH  024%=      5-min Rain = 0
KVA1 251708Z 05012KT 26/04 A2993 RMK A01 T02550035  RH  024%=      5-min Rain = 0
KVA1 251709Z 04011KT 25/04 A2993 RMK A01 T02540035  RH  024%=      5-min Rain = 0
KVA1 251710Z 03007KT 25/03 A2993 RMK A01 T02520033  RH  024%=      5-min Rain = 0
KVA1 251711Z 03011KT 25/03 A2993 RMK A01 T02510033  RH  024%=      5-min Rain = 0
KVA1 251712Z 05009KT 25/03 A2993 RMK A01 T02520030  RH  024%=      5-min Rain = 0
KVA1 251713Z 05009KT 25/03 A2993 RMK A01 T02540032  RH  024%=      5-min Rain = 0
KVA1 251714Z 03012KT 26/03 A2993 RMK A01 T02560031  RH  023%=      5-min Rain = 0
KVA1 251715Z 02008KT 26/03 A2993 RMK A01 T02560031  RH  023%=      5-min Rain = 0
KVA1 251716Z 02009KT 26/03 A2993 RMK A01 T02560032  RH  023%=      5-min Rain = 0
KVA1 251717Z 02009KT 26/03 A2993 RMK A01 T02570032  RH  023%=      5-min Rain = 0
KVA1 251718Z 01011KT 26/03 A2993 RMK A01 T02580030  RH  023%=      5-min Rain = 0
KVA1 251719Z 36008KT 26/03 A2993 RMK A01 T02560030  RH  023%=      5-min Rain = 0
KVA1 251720Z 05006KT 26/03 A2993 RMK A01 T02560030  RH  023%=      5-min Rain = 0
KVA1 251721Z 05009KT 26/03 A2993 RMK A01 T02580029  RH  023%=      5-min Rain = 0
KVA1 251722Z 03010KT 26/03 A2993 RMK A01 T02570029  RH  023%=      5-min Rain = 0
KVA1 251723Z 04008KT 26/03 A2993 RMK A01 T02560030  RH  023%=      5-min Rain = 0
KVA1 251724Z 05008KT 26/03 A2993 RMK A01 T02580029  RH  023%=      5-min Rain = 0
KVA1 251725Z 02008KT 26/03 A2993 RMK A01 T02570030  RH  023%=      5-min Rain = 0
KVA1 251726Z 01010KT 26/03 A2993 RMK A01 T02580031  RH  023%=      5-min Rain = 0
KVA1 251727Z 01007G12KT 26/03 A2993 RMK A01 T02570029  RH  023%=      5-min Rain = 0
KVA1 251728Z 04006G13KT 25/03 A2993 RMK A01 T02540029  RH  023%=      5-min Rain = 0
KVA1 251729Z 05011KT 25/03 A2993 RMK A01 T02540032  RH  024%=      5-min Rain = 0
KVA1 251730Z 02007KT 26/03 A2993 RMK A01 T02560033  RH  024%=      5-min Rain = 0
KVA1 251731Z 02011KT 26/04 A2993 RMK A01 T02560037  RH  024%=      5-min Rain = 0
KVA1 251732Z 02009KT 26/04 A2993 RMK A01 T02570038  RH  024%=      5-min Rain = 0
KVA1 251733Z 02006KT 26/04 A2993 RMK A01 T02580037  RH  024%=      5-min Rain = 0
KVA1 251734Z 02008KT 26/04 A2993 RMK A01 T02580038  RH  024%=      5-min Rain = 0
KVA1 251735Z 03011KT 26/04 A2993 RMK A01 T02620040  RH  024%=      5-min Rain = 0
KVA1 251736Z 03010KT 26/04 A2993 RMK A01 T02640038  RH  023%=      5-min Rain = 0
KVA1 251737Z 05008KT 26/04 A2993 RMK A01 T02640037  RH  023%=      5-min Rain = 0
KVA1 251738Z 03011G16KT 26/04 A2993 RMK A01 T02640039  RH  023%=      5-min Rain = 0
KVA1 251739Z 02011G16KT 27/04 A2993 RMK A01 T02690037  RH  022%=      5-min Rain = 0
KVA1 251740Z 03010KT 27/04 A2993 RMK A01 T02660037  RH  023%=      5-min Rain = 0
KVA1 251741Z 04012KT 26/04 A2993 RMK A01 T02630037  RH  023%=      5-min Rain = 0
KVA1 251742Z 03008KT 26/04 A2993 RMK A01 T02620037  RH  023%=      5-min Rain = 0
KVA1 251743Z 02009KT 26/04 A2993 RMK A01 T02610040  RH  024%=      5-min Rain = 0
KVA1 251744Z 02007KT 26/04 A2993 RMK A01 T02610036  RH  023%=      5-min Rain = 0
KVA1 251745Z 02007KT 26/04 A2993 RMK A01 T02620038  RH  024%=      5-min Rain = 0
KVA1 251746Z 03010KT 26/04 A2993 RMK A01 T02630037  RH  023%=      5-min Rain = 0
KVA1 251747Z 03017KT 26/04 A2993 RMK A01 T02640040  RH  024%=      5-min Rain = 0
KVA1 251748Z 03013G18KT 26/05 A2993 RMK A01 T02640045  RH  024%=      5-min Rain = 0
KVA1 251749Z 05013G18KT 26/05 A2993 RMK A01 T02630045  RH  025%=      5-min Rain = 0
KVA1 251750Z 05015KT 26/04 A2993 RMK A01 T02610041  RH  024%=      5-min Rain = 0
KVA1 251751Z 05011KT 26/04 A2993 RMK A01 T02620043  RH  024%=      5-min Rain = 0
KVA1 251752Z 04012KT 27/04 A2993 RMK A01 T02700044  RH  024%=      5-min Rain = 0
KVA1 251753Z 04013G20KT 27/07 A2993 RMK A01 T02710065  RH  027%=      5-min Rain = 0
KVA1 251754Z 03013KT 27/07 A2993 RMK A01 T02680071  RH  028%=      5-min Rain = 0
KVA1 251755Z 02013G18KT 27/07 A2993 RMK A01 T02660070  RH  029%=      5-min Rain = 0
KVA1 251756Z 03016G21KT 27/07 A2993 RMK A01 T02650073  RH  030%=      5-min Rain = 0
KVA1 251757Z 05019KT 27/07 A2993 RMK A01 T02650073  RH  029%=      5-min Rain = 0
KVA1 251758Z 06017G22KT 26/07 A2993 RMK A01 T02640073  RH  030%=      5-min Rain = 0
KVA1 251759Z 05016G21KT 26/07 A2993 RMK A01 T02630074  RH  030%=      5-min Rain = 0
KVA1 251800Z 03018G24KT 27/07 A2993 RMK A01 T02660074  RH  030%=      5-min Rain = 0
KVA1 251801Z 03020KT 26/08 A2993 RMK A01 T02630077  RH  031%=      5-min Rain = 0
KVA1 251802Z 04017G22KT 26/08 A2993 RMK A01 T02580078  RH  032%=      5-min Rain = 0
KVA1 251803Z 03020G25KT 26/08 A2993 RMK A01 T02580078  RH  032%=      5-min Rain = 0
KVA1 251804Z 05018G23KT 26/08 A2994 RMK A01 T02560078  RH  032%=      5-min Rain = 0
KVA1 251805Z 04017KT 25/08 A2994 RMK A01 T02540078  RH  033%=      5-min Rain = 0
KVA1 251806Z 03019G24KT 25/08 A2994 RMK A01 T02540077  RH  032%=      5-min Rain = 0
KVA1 251807Z 05018G23KT 25/08 A2994 RMK A01 T02510076  RH  033%=      5-min Rain = 0
KVA1 251808Z 05016KT 25/08 A2994 RMK A01 T02490077  RH  033%=      5-min Rain = 0
KVA1 251809Z 06015KT 25/08 A2994 RMK A01 T02480077  RH  034%=      5-min Rain = 0
KVA1 251810Z 07012KT 25/08 A2994 RMK A01 T02490078  RH  034%=      5-min Rain = 0
KVA1 251811Z 04011G17KT 25/08 A2994 RMK A01 T02480077  RH  034%=      5-min Rain = 0
KVA1 251812Z 05016KT 25/08 A2994 RMK A01 T02510077  RH  033%=      5-min Rain = 0
KVA1 251813Z 06013G18KT 25/08 A2994 RMK A01 T02520076  RH  033%=      5-min Rain = 0
KVA1 251814Z 05012KT 25/08 A2994 RMK A01 T02500077  RH  033%=      5-min Rain = 0
KVA1 251815Z 05019KT 25/08 A2994 RMK A01 T02510078  RH  033%=      5-min Rain = 0
KVA1 251816Z 05016KT 25/08 A2994 RMK A01 T02500077  RH  033%=      5-min Rain = 0
KVA1 251817Z 04016KT 25/08 A2994 RMK A01 T02470076  RH  034%=      5-min Rain = 0
KVA1 251818Z 03016KT 25/08 A2994 RMK A01 T02460077  RH  034%=      5-min Rain = 0
KVA1 251819Z 04014KT 25/08 A2994 RMK A01 T02470076  RH  033%=      5-min Rain = 0
KVA1 251820Z 04013KT 25/08 A2994 RMK A01 T02510076  RH  033%=      5-min Rain = 0
KVA1 251821Z 06015KT 25/08 A2994 RMK A01 T02520076  RH  033%=      5-min Rain = 0
KVA1 251822Z 03016KT 25/08 A2994 RMK A01 T02530081  RH  033%=      5-min Rain = 0
KVA1 251823Z 04014G20KT 25/08 A2994 RMK A01 T02530082  RH  034%=      5-min Rain = 0
KVA1 251824Z 03016G21KT 26/08 A2994 RMK A01 T02590084  RH  033%=      5-min Rain = 0
KVA1 251825Z 04014G23KT 26/08 A2994 RMK A01 T02610083  RH  032%=      5-min Rain = 0
KVA1 251826Z 04015KT 26/08 A2994 RMK A01 T02600083  RH  033%=      5-min Rain = 0
KVA1 251827Z 05017KT 26/08 A2994 RMK A01 T02580083  RH  033%=      5-min Rain = 0
KVA1 251828Z 05015G21KT 25/08 A2994 RMK A01 T02540081  RH  033%=      5-min Rain = 0
KVA1 251829Z 05018G23KT 25/08 A2994 RMK A01 T02540082  RH  034%=      5-min Rain = 0
KVA1 251830Z 05016G23KT 25/08 A2994 RMK A01 T02520080  RH  033%=      5-min Rain = 0
KVA1 251831Z 05019KT 25/08 A2994 RMK A01 T02490080  RH  034%=      5-min Rain = 0
KVA1 251832Z 05011KT 25/08 A2994 RMK A01 T02450079  RH  035%=      5-min Rain = 0
KVA1 251833Z 07013KT 25/08 A2994 RMK A01 T02460081  RH  035%=      5-min Rain = 0
KVA1 251834Z 07012KT 25/08 A2994 RMK A01 T02480080  RH  034%=      5-min Rain = 0
KVA1 251835Z 06013G18KT 25/08 A2994 RMK A01 T02480080  RH  034%=      5-min Rain = 0
KVA1 251836Z 05016KT 25/08 A2995 RMK A01 T02490080  RH  034%=      5-min Rain = 0
KVA1 251837Z 05014G20KT 25/08 A2995 RMK A01 T02490078  RH  034%=      5-min Rain = 0
KVA1 251838Z 07009KT 25/08 A2995 RMK A01 T02450078  RH  034%=      5-min Rain = 0
KVA1 251839Z 06012KT 25/08 A2994 RMK A01 T02460080  RH  035%=      5-min Rain = 0
KVA1 251840Z 03016KT 25/08 A2994 RMK A01 T02500082  RH  034%=      5-min Rain = 0
KVA1 251841Z 03016KT 25/08 A2995 RMK A01 T02540082  RH  034%=      5-min Rain = 0
KVA1 251842Z 03015KT 25/08 A2995 RMK A01 T02530080  RH  033%=      5-min Rain = 0
KVA1 251843Z 04016KT 25/08 A2995 RMK A01 T02530081  RH  033%=      5-min Rain = 0
KVA1 251844Z 06013KT 25/08 A2995 RMK A01 T02510080  RH  034%=      5-min Rain = 0
KVA1 251845Z 06015KT 25/08 A2994 RMK A01 T02490081  RH  034%=      5-min Rain = 0
KVA1 251846Z 05015KT 25/08 A2995 RMK A01 T02510080  RH  034%=      5-min Rain = 0
KVA1 251847Z 03014KT 25/08 A2995 RMK A01 T02530081  RH  033%=      5-min Rain = 0
KVA1 251848Z 01012KT 25/08 A2995 RMK A01 T02530079  RH  033%=      5-min Rain = 0
KVA1 251849Z 03010KT 25/08 A2995 RMK A01 T02520081  RH  034%=      5-min Rain = 0
KVA1 251850Z 03016G21KT 26/08 A2994 RMK A01 T02550079  RH  033%=      5-min Rain = 0
KVA1 251851Z 04012KT 25/08 A2994 RMK A01 T02510079  RH  033%=      5-min Rain = 0
KVA1 251852Z 05010KT 25/08 A2995 RMK A01 T02530080  RH  033%=      5-min Rain = 0
KVA1 251853Z 05014KT 26/08 A2994 RMK A01 T02580080  RH  032%=      5-min Rain = 0
KVA1 251854Z 06014G19KT 25/08 A2994 RMK A01 T02540079  RH  033%=      5-min Rain = 0
KVA1 251855Z 06014G19KT 25/08 A2994 RMK A01 T02520080  RH  033%=      5-min Rain = 0
KVA1 251856Z 04012G17KT 25/08 A2995 RMK A01 T02520079  RH  033%=      5-min Rain = 0
KVA1 251857Z 05012G17KT 25/08 A2994 RMK A01 T02540079  RH  033%=      5-min Rain = 0
KVA1 251858Z 06015G20KT 25/08 A2994 RMK A01 T02530078  RH  033%=      5-min Rain = 0
KVA1 251859Z 06012G20KT 25/08 A2994 RMK A01 T02520079  RH  033%=      5-min Rain = 0
KVA1 251900Z 06013KT 25/08 A2994 RMK A01 T02530079  RH  033%=      5-min Rain = 0
KVA1 251901Z 06016KT 25/08 A2994 RMK A01 T02520079  RH  033%=      5-min Rain = 0
KVA1 251902Z 05011KT 25/08 A2994 RMK A01 T02500078  RH  033%=      5-min Rain = 0
KVA1 251903Z 05012KT 25/08 A2994 RMK A01 T02480078  RH  034%=      5-min Rain = 0
KVA1 251904Z 07010G15KT 25/08 A2994 RMK A01 T02490078  RH  034%=      5-min Rain = 0
KVA1 251905Z 07013KT 25/08 A2994 RMK A01 T02490079  RH  034%=      5-min Rain = 0
KVA1 251906Z 06012KT 25/08 A2994 RMK A01 T02500079  RH  034%=      5-min Rain = 0
KVA1 251907Z 05009KT 25/08 A2994 RMK A01 T02520080  RH  033%=      5-min Rain = 0
KVA1 251908Z 07014KT 25/08 A2994 RMK A01 T02530080  RH  033%=      5-min Rain = 0
KVA1 251909Z 05012G17KT 25/08 A2994 RMK A01 T02540081  RH  033%=      5-min Rain = 0
KVA1 251910Z 07016KT 26/08 A2994 RMK A01 T02560080  RH  033%=      5-min Rain = 0
KVA1 251911Z 07013G18KT 26/08 A2994 RMK A01 T02550080  RH  033%=      5-min Rain = 0
KVA1 251912Z 07014KT 26/08 A2994 RMK A01 T02550080  RH  033%=      5-min Rain = 0
KVA1 251913Z 05017KT 26/08 A2994 RMK A01 T02570080  RH  032%=      5-min Rain = 0
KVA1 251914Z 05014KT 26/08 A2994 RMK A01 T02590078  RH  032%=      5-min Rain = 0
KVA1 251915Z 06014KT 26/08 A2994 RMK A01 T02570079  RH  032%=      5-min Rain = 0
KVA1 251916Z 07010KT 26/08 A2994 RMK A01 T02560079  RH  033%=      5-min Rain = 0
KVA1 251917Z 05015KT 26/08 A2994 RMK A01 T02570080  RH  032%=      5-min Rain = 0
KVA1 251918Z 03013KT 26/08 A2994 RMK A01 T02570079  RH  032%=      5-min Rain = 0
KVA1 251919Z 02010KT 26/08 A2994 RMK A01 T02550079  RH  033%=      5-min Rain = 0
KVA1 251920Z 06013G19KT 26/08 A2994 RMK A01 T02550079  RH  033%=      5-min Rain = 0
KVA1 251921Z 07015KT 26/08 A2994 RMK A01 T02580080  RH  032%=      5-min Rain = 0
KVA1 251922Z 06014KT 26/08 A2994 RMK A01 T02590079  RH  032%=      5-min Rain = 0
KVA1 251923Z 05015KT 26/08 A2994 RMK A01 T02560079  RH  032%=      5-min Rain = 0
KVA1 251924Z 07014KT 26/08 A2994 RMK A01 T02570079  RH  032%=      5-min Rain = 0
KVA1 251925Z 07017KT 26/08 A2994 RMK A01 T02550079  RH  033%=      5-min Rain = 0
KVA1 251926Z 05019KT 26/08 A2994 RMK A01 T02550079  RH  033%=      5-min Rain = 0
KVA1 251927Z 04015KT 26/08 A2994 RMK A01 T02560079  RH  032%=      5-min Rain = 0
KVA1 251928Z 05013KT 26/08 A2994 RMK A01 T02570078  RH  032%=      5-min Rain = 0
KVA1 251929Z 05011KT 26/08 A2994 RMK A01 T02550079  RH  033%=      5-min Rain = 0
KVA1 251930Z 05014G19KT 26/08 A2994 RMK A01 T02550080  RH  033%=      5-min Rain = 0
KVA1 251931Z 06016KT 26/08 A2994 RMK A01 T02570079  RH  032%=      5-min Rain = 0
KVA1 251932Z 08015KT 26/08 A2994 RMK A01 T02550079  RH  033%=      5-min Rain = 0
KVA1 251933Z 08016KT 26/08 A2993 RMK A01 T02550079  RH  033%=      5-min Rain = 0
KVA1 251934Z 05015G25KT 26/08 A2993 RMK A01 T02560080  RH  033%=      5-min Rain = 0
KVA1 251935Z 06018G25KT 26/08 A2993 RMK A01 T02560079  RH  032%=      5-min Rain = 0
KVA1 251936Z 06013KT 26/08 A2994 RMK A01 T02550079  RH  033%=      5-min Rain = 0
KVA1 251937Z 05019KT 26/08 A2993 RMK A01 T02560079  RH  032%=      5-min Rain = 0
KVA1 251938Z 04020KT 26/08 A2994 RMK A01 T02570078  RH  032%=      5-min Rain = 0
KVA1 251939Z 04014KT 26/08 A2994 RMK A01 T02580077  RH  032%=      5-min Rain = 0
KVA1 251940Z 05012KT 25/08 A2994 RMK A01 T02540076  RH  032%=      5-min Rain = 0
KVA1 251941Z 05009KT 25/08 A2994 RMK A01 T02500076  RH  033%=      5-min Rain = 0
KVA1 251942Z 04010KT 25/08 A2994 RMK A01 T02530078  RH  033%=      5-min Rain = 0
KVA1 251943Z 05011KT 26/08 A2994 RMK A01 T02590077  RH  032%=      5-min Rain = 0
KVA1 251944Z 06013KT 26/08 A2994 RMK A01 T02620078  RH  031%=      5-min Rain = 0
KVA1 251945Z 06013KT 26/08 A2994 RMK A01 T02600076  RH  031%=      5-min Rain = 0
KVA1 251946Z 05012KT 26/08 A2994 RMK A01 T02580076  RH  031%=      5-min Rain = 0
KVA1 251947Z 06012KT 26/08 A2994 RMK A01 T02580076  RH  032%=      5-min Rain = 0
KVA1 251948Z 08011KT 26/08 A2994 RMK A01 T02550076  RH  032%=      5-min Rain = 0
KVA1 251949Z 06013G18KT 26/08 A2994 RMK A01 T02550077  RH  032%=      5-min Rain = 0
KVA1 251950Z 05016KT 26/08 A2994 RMK A01 T02610077  RH  031%=      5-min Rain = 0
KVA1 251951Z 05014KT 26/08 A2994 RMK A01 T02610077  RH  031%=      5-min Rain = 0
KVA1 251952Z 05011KT 26/08 A2994 RMK A01 T02570077  RH  032%=      5-min Rain = 0
KVA1 251953Z 07011KT 26/08 A2994 RMK A01 T02560078  RH  032%=      5-min Rain = 0
KVA1 251954Z 05009KT 26/08 A2994 RMK A01 T02560078  RH  032%=      5-min Rain = 0
KVA1 251955Z 02013G18KT 26/08 A2994 RMK A01 T02570079  RH  032%=      5-min Rain = 0
KVA1 251956Z 02013KT 26/08 A2994 RMK A01 T02580078  RH  032%=      5-min Rain = 0
KVA1 251957Z 04010KT 26/08 A2994 RMK A01 T02610080  RH  032%=      5-min Rain = 0
KVA1 251958Z 03014KT 27/08 A2994 RMK A01 T02690081  RH  030%=      5-min Rain = 0
KVA1 251959Z 05016KT 27/08 A2994 RMK A01 T02660079  RH  030%=      5-min Rain = 0
KVA1 252000Z 05013G19KT 26/08 A2994 RMK A01 T02610077  RH  031%=      5-min Rain = 0
KVA1 252001Z 06011KT 26/08 A2994 RMK A01 T02570078  RH  032%=      5-min Rain = 0
KVA1 252002Z 05012KT 26/08 A2994 RMK A01 T02570078  RH  032%=      5-min Rain = 0
KVA1 252003Z 03012KT 26/08 A2994 RMK A01 T02560078  RH  032%=      5-min Rain = 0
KVA1 252004Z 03014KT 26/08 A2994 RMK A01 T02570078  RH  032%=      5-min Rain = 0
KVA1 252005Z 04015KT 26/08 A2993 RMK A01 T02560077  RH  032%=      5-min Rain = 0
KVA1 252006Z 02013KT 25/08 A2994 RMK A01 T02530077  RH  033%=      5-min Rain = 0
KVA1 252007Z 02012KT 25/08 A2993 RMK A01 T02520077  RH  033%=      5-min Rain = 0
KVA1 252008Z 05015KT 25/08 A2994 RMK A01 T02520076  RH  033%=      5-min Rain = 0
KVA1 252009Z 05011KT 25/07 A2994 RMK A01 T02520074  RH  032%=      5-min Rain = 0
KVA1 252010Z 06012G18KT 25/08 A2993 RMK A01 T02500076  RH  033%=      5-min Rain = 0
KVA1 252011Z 06014KT 25/08 A2993 RMK A01 T02480078  RH  034%=      5-min Rain = 0
KVA1 252012Z 06016G25KT 25/08 A2993 RMK A01 T02500080  RH  034%=      5-min Rain = 0
KVA1 252013Z 04018KT 26/08 A2993 RMK A01 T02560080  RH  033%=      5-min Rain = 0
KVA1 252014Z 05013KT 26/08 A2993 RMK A01 T02590080  RH  032%=      5-min Rain = 0
KVA1 252015Z 05014KT 26/08 A2994 RMK A01 T02600080  RH  032%=      5-min Rain = 0
KVA1 252016Z 05014KT 26/08 A2993 RMK A01 T02580079  RH  032%=      5-min Rain = 0
KVA1 252017Z 04017KT 26/08 A2993 RMK A01 T02580078  RH  032%=      5-min Rain = 0
KVA1 252018Z 04011G16KT 26/08 A2993 RMK A01 T02570078  RH  032%=      5-min Rain = 0
KVA1 252019Z 03009KT 26/08 A2993 RMK A01 T02560078  RH  032%=      5-min Rain = 0
KVA1 252020Z 05010KT 26/08 A2993 RMK A01 T02590079  RH  032%=      5-min Rain = 0
KVA1 252021Z 06015KT 26/08 A2993 RMK A01 T02610078  RH  031%=      5-min Rain = 0
KVA1 252022Z 07011G17KT 26/08 A2993 RMK A01 T02620078  RH  031%=      5-min Rain = 0
KVA1 252023Z 05011KT 26/08 A2993 RMK A01 T02640077  RH  030%=      5-min Rain = 0
KVA1 252024Z 06009KT 26/08 A2993 RMK A01 T02620077  RH  031%=      5-min Rain = 0
KVA1 252025Z 06014G20KT 26/08 A2993 RMK A01 T02610077  RH  031%=      5-min Rain = 0
KVA1 252026Z 06011KT 26/08 A2993 RMK A01 T02610077  RH  031%=      5-min Rain = 0
KVA1 252027Z 07012KT 26/08 A2993 RMK A01 T02600078  RH  031%=      5-min Rain = 0
KVA1 252028Z 06011KT 26/08 A2993 RMK A01 T02600076  RH  031%=      5-min Rain = 0
KVA1 252029Z 06013KT 26/08 A2993 RMK A01 T02590078  RH  032%=      5-min Rain = 0
KVA1 252030Z 06013KT 26/08 A2993 RMK A01 T02580078  RH  032%=      5-min Rain = 0
KVA1 252031Z 06010KT 26/08 A2993 RMK A01 T02580079  RH  032%=      5-min Rain = 0
KVA1 252032Z 06009KT 26/08 A2993 RMK A01 T02600080  RH  032%=      5-min Rain = 0
KVA1 252033Z 05010G17KT 26/08 A2993 RMK A01 T02630079  RH  031%=      5-min Rain = 0
KVA1 252034Z 05014KT 26/08 A2993 RMK A01 T02640080  RH  031%=      5-min Rain = 0
KVA1 252035Z 06017KT 27/08 A2993 RMK A01 T02650080  RH  031%=      5-min Rain = 0
KVA1 252036Z 05016G22KT 26/08 A2993 RMK A01 T02640079  RH  031%=      5-min Rain = 0
KVA1 252037Z 05019KT 26/08 A2993 RMK A01 T02620079  RH  031%=      5-min Rain = 0
KVA1 252038Z 06015KT 26/08 A2993 RMK A01 T02580078  RH  032%=      5-min Rain = 0
KVA1 252039Z 07011KT 25/08 A2993 RMK A01 T02540077  RH  033%=      5-min Rain = 0
KVA1 252040Z 06012G17KT 25/08 A2993 RMK A01 T02520077  RH  033%=      5-min Rain = 0
KVA1 252041Z 04015KT 25/08 A2993 RMK A01 T02510076  RH  033%=      5-min Rain = 0
KVA1 252042Z 04012KT 25/07 A2993 RMK A01 T02530074  RH  032%=      5-min Rain = 0
KVA1 252043Z 07010KT 25/07 A2993 RMK A01 T02520074  RH  032%=      5-min Rain = 0
KVA1 252044Z 07013KT 25/07 A2993 RMK A01 T02530074  RH  032%=      5-min Rain = 0
KVA1 252045Z 06010G15KT 25/07 A2993 RMK A01 T02520074  RH  032%=      5-min Rain = 0
KVA1 252046Z 06011KT 25/07 A2993 RMK A01 T02520074  RH  032%=      5-min Rain = 0
KVA1 252047Z 06011KT 25/07 A2993 RMK A01 T02510073  RH  032%=      5-min Rain = 0
KVA1 252048Z 06008G14KT 25/07 A2993 RMK A01 T02490073  RH  032%=      5-min Rain = 0
KVA1 252049Z 05011G16KT 25/08 A2993 RMK A01 T02500076  RH  033%=      5-min Rain = 0
KVA1 252050Z 06009KT 25/08 A2993 RMK A01 T02520078  RH  033%=      5-min Rain = 0
KVA1 252051Z 03012KT 25/08 A2993 RMK A01 T02530079  RH  033%=      5-min Rain = 0
KVA1 252052Z 03013KT 25/08 A2993 RMK A01 T02530077  RH  033%=      5-min Rain = 0
KVA1 252053Z 04011KT 25/08 A2993 RMK A01 T02500076  RH  033%=      5-min Rain = 0
KVA1 252054Z 03010KT 25/08 A2993 RMK A01 T02500077  RH  033%=      5-min Rain = 0
KVA1 252055Z 03012KT 25/08 A2993 RMK A01 T02500077  RH  033%=      5-min Rain = 0
KVA1 252056Z 03013G18KT 25/08 A2993 RMK A01 T02510076  RH  033%=      5-min Rain = 0
KVA1 252057Z 02013G18KT 25/08 A2993 RMK A01 T02510075  RH  032%=      5-min Rain = 0
KVA1 252058Z 01013KT 25/08 A2993 RMK A01 T02520075  RH  032%=      5-min Rain = 0
KVA1 252059Z 02014KT 25/07 A2993 RMK A01 T02530074  RH  032%=      5-min Rain = 0
KVA1 252100Z 02014KT 25/07 A2993 RMK A01 T02520074  RH  032%=      5-min Rain = 0
KVA1 252101Z 02010KT 25/07 A2993 RMK A01 T02520074  RH  032%=      5-min Rain = 0
KVA1 252102Z 04009KT 25/07 A2993 RMK A01 T02520074  RH  032%=      5-min Rain = 0
KVA1 252103Z 03013G19KT 25/07 A2993 RMK A01 T02510074  RH  032%=      5-min Rain = 0
KVA1 252104Z 01012KT 25/07 A2993 RMK A01 T02520074  RH  032%=      5-min Rain = 0
KVA1 252105Z 02015KT 25/07 A2993 RMK A01 T02520074  RH  032%=      5-min Rain = 0
KVA1 252106Z 01013KT 25/07 A2993 RMK A01 T02520073  RH  032%=      5-min Rain = 0
KVA1 252107Z 03012KT 25/07 A2993 RMK A01 T02510073  RH  032%=      5-min Rain = 0
KVA1 252108Z 03012KT 25/07 A2993 RMK A01 T02500073  RH  032%=      5-min Rain = 0
KVA1 252109Z 04011KT 25/07 A2993 RMK A01 T02490073  RH  032%=      5-min Rain = 0
KVA1 252110Z 04009KT 25/07 A2993 RMK A01 T02480074  RH  033%=      5-min Rain = 0
KVA1 252111Z 04011KT 25/07 A2993 RMK A01 T02480074  RH  033%=      5-min Rain = 0
KVA1 252112Z 04011KT 25/07 A2993 RMK A01 T02470073  RH  033%=      5-min Rain = 0
KVA1 252113Z 05014G21KT 25/08 A2993 RMK A01 T02460075  RH  034%=      5-min Rain = 0
KVA1 252114Z 06017KT 25/08 A2993 RMK A01 T02460078  RH  034%=      5-min Rain = 0
KVA1 252115Z 06014G20KT 25/08 A2993 RMK A01 T02460078  RH  034%=      5-min Rain = 0
KVA1 252116Z 05014KT 25/08 A2993 RMK A01 T02460079  RH  034%=      5-min Rain = 0
KVA1 252117Z 04013KT 25/08 A2993 RMK A01 T02480078  RH  034%=      5-min Rain = 0
KVA1 252118Z 04017KT 25/08 A2993 RMK A01 T02480078  RH  034%=      5-min Rain = 0
KVA1 252119Z 04017KT 25/08 A2993 RMK A01 T02470078  RH  034%=      5-min Rain = 0
KVA1 252120Z 05013G18KT 25/08 A2993 RMK A01 T02460079  RH  034%=      5-min Rain = 0
KVA1 252121Z 05015KT 25/08 A2993 RMK A01 T02450081  RH  035%=      5-min Rain = 0
KVA1 252122Z 04015G20KT 24/08 A2993 RMK A01 T02440083  RH  036%=      5-min Rain = 0
KVA1 252123Z 04017KT 24/08 A2993 RMK A01 T02440083  RH  036%=      5-min Rain = 0
KVA1 252124Z 05017KT 25/08 A2993 RMK A01 T02450083  RH  036%=      5-min Rain = 0
KVA1 252125Z 04015KT 25/08 A2993 RMK A01 T02460083  RH  035%=      5-min Rain = 0
KVA1 252126Z 04015KT 25/08 A2993 RMK A01 T02470084  RH  035%=      5-min Rain = 0
KVA1 252127Z 03014G20KT 25/08 A2993 RMK A01 T02470084  RH  035%=      5-min Rain = 0
KVA1 252128Z 04016KT 25/09 A2993 RMK A01 T02480085  RH  036%=      5-min Rain = 0
KVA1 252129Z 04016KT 25/09 A2993 RMK A01 T02470088  RH  036%=      5-min Rain = 0
KVA1 252130Z 05014KT 25/09 A2993 RMK A01 T02450088  RH  037%=      5-min Rain = 0
KVA1 252131Z 05011KT 24/09 A2993 RMK A01 T02440089  RH  037%=      5-min Rain = 0
KVA1 252132Z 05011KT 24/09 A2993 RMK A01 T02430090  RH  038%=      5-min Rain = 0
KVA1 252133Z 05011KT 24/09 A2993 RMK A01 T02440091  RH  038%=      5-min Rain = 0
KVA1 252134Z 04014G19KT 25/09 A2993 RMK A01 T02450090  RH  037%=      5-min Rain = 0
KVA1 252135Z 04014KT 25/09 A2993 RMK A01 T02450089  RH  037%=      5-min Rain = 0
KVA1 252136Z 05011KT 24/09 A2993 RMK A01 T02430087  RH  037%=      5-min Rain = 0
KVA1 252137Z 04017G23KT 24/09 A2993 RMK A01 T02430086  RH  037%=      5-min Rain = 0
KVA1 252138Z 03018KT 24/09 A2993 RMK A01 T02440085  RH  036%=      5-min Rain = 0
KVA1 252139Z 05015KT 24/09 A2993 RMK A01 T02420085  RH  037%=      5-min Rain = 0
KVA1 252140Z 06015KT 24/09 A2993 RMK A01 T02420085  RH  037%=      5-min Rain = 0
KVA1 252141Z 06015KT 24/08 A2993 RMK A01 T02430084  RH  036%=      5-min Rain = 0
KVA1 252142Z 04015G21KT 24/08 A2993 RMK A01 T02420084  RH  036%=      5-min Rain = 0
KVA1 252143Z 05015KT 24/08 A2993 RMK A01 T02410083  RH  036%=      5-min Rain = 0
KVA1 252144Z 05014KT 24/08 A2993 RMK A01 T02400084  RH  037%=      5-min Rain = 0
KVA1 252145Z 06015KT 24/08 A2993 RMK A01 T02400084  RH  037%=      5-min Rain = 0
KVA1 252146Z 05010KT 24/08 A2993 RMK A01 T02390083  RH  037%=      5-min Rain = 0
KVA1 252147Z 06011KT 24/08 A2994 RMK A01 T02390084  RH  037%=      5-min Rain = 0
KVA1 252148Z 06011KT 24/08 A2994 RMK A01 T02410083  RH  037%=      5-min Rain = 0
KVA1 252149Z 05009KT 24/08 A2994 RMK A01 T02400083  RH  037%=      5-min Rain = 0
KVA1 252150Z 04011KT 24/08 A2994 RMK A01 T02410083  RH  036%=      5-min Rain = 0
KVA1 252151Z 03013KT 24/08 A2994 RMK A01 T02420082  RH  036%=      5-min Rain = 0
KVA1 252152Z 03014KT 24/08 A2994 RMK A01 T02420082  RH  036%=      5-min Rain = 0
KVA1 252153Z 03012KT 24/08 A2994 RMK A01 T02400082  RH  036%=      5-min Rain = 0
KVA1 252154Z 03013KT 24/08 A2994 RMK A01 T02390081  RH  036%=      5-min Rain = 0
KVA1 252155Z 03008KT 24/08 A2994 RMK A01 T02380081  RH  037%=      5-min Rain = 0
KVA1 252156Z 05011KT 24/08 A2994 RMK A01 T02380081  RH  037%=      5-min Rain = 0
KVA1 252157Z 04012G17KT 24/08 A2994 RMK A01 T02390081  RH  036%=      5-min Rain = 0
KVA1 252158Z 05015KT 24/08 A2994 RMK A01 T02400081  RH  036%=      5-min Rain = 0
KVA1 252159Z 06010KT 24/08 A2994 RMK A01 T02400082  RH  036%=      5-min Rain = 0
KVA1 252200Z 07013KT 24/08 A2994 RMK A01 T02400082  RH  037%=      5-min Rain = 0
KVA1 252201Z 06011KT 24/08 A2994 RMK A01 T02400082  RH  036%=      5-min Rain = 0
KVA1 252202Z 06011KT 24/08 A2994 RMK A01 T02400081  RH  036%=      5-min Rain = 0
KVA1 252203Z 04009KT 24/08 A2994 RMK A01 T02400082  RH  036%=      5-min Rain = 0
KVA1 252204Z 04010KT 24/08 A2994 RMK A01 T02400080  RH  036%=      5-min Rain = 0
KVA1 252205Z 05014G20KT 24/08 A2993 RMK A01 T02390080  RH  036%=      5-min Rain = 0
KVA1 252206Z 04016KT 24/08 A2994 RMK A01 T02390081  RH  036%=      5-min Rain = 0
KVA1 252207Z 04018KT 24/08 A2994 RMK A01 T02380080  RH  036%=      5-min Rain = 0
KVA1 252208Z 04017KT 24/08 A2993 RMK A01 T02360079  RH  037%=      5-min Rain = 0
KVA1 252209Z 04015KT 24/08 A2993 RMK A01 T02350079  RH  037%=      5-min Rain = 0
KVA1 252210Z 04015KT 24/08 A2993 RMK A01 T02350080  RH  037%=      5-min Rain = 0
KVA1 252211Z 05015G20KT 24/08 A2993 RMK A01 T02350079  RH  037%=      5-min Rain = 0
KVA1 252212Z 05014KT 24/08 A2993 RMK A01 T02350079  RH  037%=      5-min Rain = 0
KVA1 252213Z 05012KT 23/08 A2993 RMK A01 T02340079  RH  037%=      5-min Rain = 0
KVA1 252214Z 06013KT 23/08 A2993 RMK A01 T02340078  RH  037%=      5-min Rain = 0
KVA1 252215Z 04012G17KT 24/08 A2993 RMK A01 T02350078  RH  037%=      5-min Rain = 0
KVA1 252216Z 04015KT 24/08 A2993 RMK A01 T02350079  RH  037%=      5-min Rain = 0
KVA1 252217Z 04012KT 24/08 A2993 RMK A01 T02360080  RH  037%=      5-min Rain = 0
KVA1 252218Z 04016KT 24/08 A2993 RMK A01 T02360081  RH  037%=      5-min Rain = 0
KVA1 252219Z 05016G21KT 24/08 A2993 RMK A01 T02350080  RH  037%=      5-min Rain = 0
KVA1 252220Z 04017KT 24/08 A2993 RMK A01 T02350079  RH  037%=      5-min Rain = 0
KVA1 252221Z 04013G18KT 24/08 A2993 RMK A01 T02350079  RH  037%=      5-min Rain = 0
KVA1 252222Z 04014KT 23/08 A2993 RMK A01 T02340079  RH  037%=      5-min Rain = 0
KVA1 252223Z 05013G18KT 23/08 A2993 RMK A01 T02340078  RH  037%=      5-min Rain = 0
KVA1 252224Z 04015KT 24/08 A2994 RMK A01 T02350078  RH  036%=      5-min Rain = 0
KVA1 252225Z 04014KT 24/08 A2994 RMK A01 T02350078  RH  036%=      5-min Rain = 0
KVA1 252226Z 04016KT 24/08 A2994 RMK A01 T02350078  RH  037%=      5-min Rain = 0
KVA1 252227Z 04012KT 23/08 A2994 RMK A01 T02340078  RH  037%=      5-min Rain = 0
KVA1 252228Z 04012KT 23/08 A2994 RMK A01 T02340078  RH  037%=      5-min Rain = 0
KVA1 252229Z 04011KT 24/08 A2994 RMK A01 T02350077  RH  036%=      5-min Rain = 0
KVA1 252230Z 03012KT 24/08 A2994 RMK A01 T02350077  RH  036%=      5-min Rain = 0
KVA1 252231Z 04012KT 23/08 A2994 RMK A01 T02340077  RH  036%=      5-min Rain = 0
KVA1 252232Z 04011KT 23/08 A2994 RMK A01 T02340076  RH  036%=      5-min Rain = 0
KVA1 252233Z 03012KT 23/08 A2994 RMK A01 T02340076  RH  036%=      5-min Rain = 0
KVA1 252234Z 04009KT 23/08 A2994 RMK A01 T02340076  RH  036%=      5-min Rain = 0
KVA1 252235Z 04011KT 24/08 A2994 RMK A01 T02350076  RH  036%=      5-min Rain = 0
KVA1 252236Z 04011KT 24/08 A2994 RMK A01 T02350076  RH  036%=      5-min Rain = 0
KVA1 252237Z 03008KT 24/08 A2994 RMK A01 T02350077  RH  036%=      5-min Rain = 0
KVA1 252238Z 04010KT 24/08 A2994 RMK A01 T02350076  RH  036%=      5-min Rain = 0
KVA1 252239Z 04012KT 24/08 A2994 RMK A01 T02360076  RH  036%=      5-min Rain = 0
KVA1 252240Z 04013KT 24/08 A2995 RMK A01 T02360075  RH  036%=      5-min Rain = 0
KVA1 252241Z 04011KT 24/07 A2995 RMK A01 T02350074  RH  036%=      5-min Rain = 0
KVA1 252242Z 03009KT 23/07 A2995 RMK A01 T02340074  RH  036%=      5-min Rain = 0
KVA1 252243Z 03012KT 23/07 A2995 RMK A01 T02340074  RH  036%=      5-min Rain = 0
KVA1 252244Z 03011KT 23/07 A2995 RMK A01 T02340074  RH  036%=      5-min Rain = 0
KVA1 252245Z 04009KT 23/07 A2995 RMK A01 T02340074  RH  036%=      5-min Rain = 0
KVA1 252246Z 05009KT 23/07 A2995 RMK A01 T02340074  RH  036%=      5-min Rain = 0
KVA1 252247Z 05010KT 24/07 A2995 RMK A01 T02350074  RH  035%=      5-min Rain = 0
KVA1 252248Z 05009KT 24/07 A2995 RMK A01 T02350073  RH  035%=      5-min Rain = 0
KVA1 252249Z 04009KT 24/07 A2995 RMK A01 T02350073  RH  035%=      5-min Rain = 0
KVA1 252250Z 04010KT 24/07 A2995 RMK A01 T02350073  RH  035%=      5-min Rain = 0
KVA1 252251Z 05011KT 24/07 A2995 RMK A01 T02350074  RH  036%=      5-min Rain = 0
KVA1 252252Z 05011KT 24/08 A2995 RMK A01 T02350077  RH  036%=      5-min Rain = 0
KVA1 252253Z 06009KT 24/08 A2995 RMK A01 T02350077  RH  036%=      5-min Rain = 0
KVA1 252254Z 06013KT 24/08 A2994 RMK A01 T02350077  RH  036%=      5-min Rain = 0
KVA1 252255Z 07012KT 23/08 A2994 RMK A01 T02340078  RH  037%=      5-min Rain = 0
KVA1 252256Z 06015KT 23/08 A2994 RMK A01 T02340078  RH  037%=      5-min Rain = 0
KVA1 252257Z 06014KT 24/08 A2994 RMK A01 T02350077  RH  036%=      5-min Rain = 0
KVA1 252258Z 06012KT 24/08 A2994 RMK A01 T02350077  RH  036%=      5-min Rain = 0
KVA1 252259Z 07013KT 24/08 A2994 RMK A01 T02350077  RH  036%=      5-min Rain = 0
KVA1 252300Z 07010G15KT 24/08 A2994 RMK A01 T02360077  RH  036%=      5-min Rain = 0
KVA1 252301Z 06012G17KT 24/08 A2994 RMK A01 T02360077  RH  036%=      5-min Rain = 0
KVA1 252302Z 06011KT 24/08 A2994 RMK A01 T02360076  RH  036%=      5-min Rain = 0
KVA1 252303Z 05010KT 24/08 A2994 RMK A01 T02360077  RH  036%=      5-min Rain = 0
KVA1 252304Z 05012KT 24/08 A2994 RMK A01 T02360077  RH  036%=      5-min Rain = 0
KVA1 252305Z 04012KT 24/08 A2994 RMK A01 T02370076  RH  036%=      5-min Rain = 0
KVA1 252306Z 04011KT 24/08 A2994 RMK A01 T02370076  RH  036%=      5-min Rain = 0
KVA1 252307Z 04009KT 24/08 A2995 RMK A01 T02370076  RH  036%=      5-min Rain = 0
KVA1 252308Z 04007KT 24/08 A2995 RMK A01 T02370076  RH  035%=      5-min Rain = 0
KVA1 252309Z 04011KT 24/08 A2995 RMK A01 T02380076  RH  035%=      5-min Rain = 0
KVA1 252310Z 05012G17KT 24/08 A2995 RMK A01 T02380076  RH  035%=      5-min Rain = 0
KVA1 252311Z 05013KT 24/08 A2995 RMK A01 T02390076  RH  035%=      5-min Rain = 0
KVA1 252312Z 04010KT 24/08 A2995 RMK A01 T02390076  RH  035%=      5-min Rain = 0
KVA1 252313Z 04011KT 24/08 A2995 RMK A01 T02390075  RH  035%=      5-min Rain = 0
KVA1 252314Z 05011KT 24/08 A2995 RMK A01 T02390076  RH  035%=      5-min Rain = 0
KVA1 252315Z 05012KT 24/08 A2995 RMK A01 T02390075  RH  035%=      5-min Rain = 0
KVA1 252316Z 05013G19KT 24/08 A2995 RMK A01 T02370076  RH  035%=      5-min Rain = 0
KVA1 252317Z 04015KT 24/08 A2995 RMK A01 T02370078  RH  036%=      5-min Rain = 0
KVA1 252318Z 05013KT 24/08 A2995 RMK A01 T02360078  RH  036%=      5-min Rain = 0
KVA1 252319Z 07011KT 24/08 A2995 RMK A01 T02360078  RH  036%=      5-min Rain = 0
KVA1 252320Z 06011KT 24/08 A2995 RMK A01 T02360078  RH  036%=      5-min Rain = 0
KVA1 252321Z 05012KT 24/08 A2995 RMK A01 T02370078  RH  036%=      5-min Rain = 0
KVA1 252322Z 04012KT 24/08 A2995 RMK A01 T02370078  RH  036%=      5-min Rain = 0
KVA1 252323Z 03014KT 24/08 A2995 RMK A01 T02370078  RH  036%=      5-min Rain = 0
KVA1 252324Z 04012G17KT 24/08 A2995 RMK A01 T02360078  RH  036%=      5-min Rain = 0
KVA1 252325Z 05011KT 24/08 A2995 RMK A01 T02360078  RH  036%=      5-min Rain = 0
KVA1 252326Z 04009KT 24/08 A2995 RMK A01 T02370078  RH  036%=      5-min Rain = 0
KVA1 252327Z 05010KT 24/08 A2995 RMK A01 T02380079  RH  036%=      5-min Rain = 0
KVA1 252328Z 05012KT 24/08 A2996 RMK A01 T02380078  RH  036%=      5-min Rain = 0
KVA1 252329Z 04009KT 24/08 A2996 RMK A01 T02370077  RH  036%=      5-min Rain = 0
KVA1 252330Z 04009KT 24/08 A2996 RMK A01 T02360077  RH  036%=      5-min Rain = 0
KVA1 252331Z 04009KT 24/08 A2996 RMK A01 T02360077  RH  036%=      5-min Rain = 0
KVA1 252332Z 05009KT 24/08 A2996 RMK A01 T02360077  RH  036%=      5-min Rain = 0
KVA1 252333Z 06009KT 24/08 A2996 RMK A01 T02370077  RH  036%=      5-min Rain = 0
KVA1 252334Z 06010KT 24/08 A2996 RMK A01 T02380077  RH  036%=      5-min Rain = 0
KVA1 252335Z 06010KT 24/08 A2996 RMK A01 T02380077  RH  035%=      5-min Rain = 0
KVA1 252336Z 06011KT 24/08 A2996 RMK A01 T02380076  RH  035%=      5-min Rain = 0
KVA1 252337Z 07011KT 24/08 A2996 RMK A01 T02380076  RH  035%=      5-min Rain = 0
KVA1 252338Z 05012KT 24/08 A2996 RMK A01 T02390076  RH  035%=      5-min Rain = 0
KVA1 252339Z 05013KT 24/08 A2996 RMK A01 T02390076  RH  035%=      5-min Rain = 0
KVA1 252340Z 04013KT 24/08 A2996 RMK A01 T02400076  RH  035%=      5-min Rain = 0
KVA1 252341Z 05013KT 24/08 A2996 RMK A01 T02400077  RH  035%=      5-min Rain = 0
KVA1 252342Z 06013KT 24/08 A2996 RMK A01 T02400077  RH  035%=      5-min Rain = 0
KVA1 252343Z 04013KT 24/08 A2996 RMK A01 T02400078  RH  035%=      5-min Rain = 0
KVA1 252344Z 05012KT 24/08 A2996 RMK A01 T02400079  RH  036%=      5-min Rain = 0
KVA1 252345Z 04013KT 24/08 A2996 RMK A01 T02410079  RH  035%=      5-min Rain = 0
KVA1 252346Z 05013KT 24/08 A2996 RMK A01 T02400079  RH  036%=      5-min Rain = 0
KVA1 252347Z 05012KT 24/08 A2996 RMK A01 T02390079  RH  036%=      5-min Rain = 0
KVA1 252348Z 05013KT 24/08 A2996 RMK A01 T02400079  RH  036%=      5-min Rain = 0
KVA1 252349Z 05014KT 24/08 A2995 RMK A01 T02400078  RH  035%=      5-min Rain = 0
KVA1 252350Z 04013KT 24/08 A2995 RMK A01 T02390079  RH  036%=      5-min Rain = 0
KVA1 252351Z 05014KT 24/08 A2995 RMK A01 T02410079  RH  036%=      5-min Rain = 0
KVA1 252352Z 06013KT 24/08 A2995 RMK A01 T02410078  RH  035%=      5-min Rain = 0
KVA1 252353Z 06011KT 24/08 A2995 RMK A01 T02410078  RH  035%=      5-min Rain = 0
KVA1 252354Z 06012KT 24/08 A2995 RMK A01 T02410078  RH  035%=      5-min Rain = 0
KVA1 252355Z 06012KT 24/08 A2995 RMK A01 T02410078  RH  035%=      5-min Rain = 0
KVA1 252356Z 04012G17KT 24/08 A2995 RMK A01 T02410079  RH  035%=      5-min Rain = 0
KVA1 252357Z 05012KT 24/08 A2995 RMK A01 T02440079  RH  035%=      5-min Rain = 0
KVA1 252358Z 05013KT 24/08 A2995 RMK A01 T02440079  RH  035%=      5-min Rain = 0
KVA1 252359Z 05015KT 24/08 A2995 RMK A01 T02440077  RH  034%=      5-min Rain = 0
KVA1 260000Z 06013KT 24/08 A2995 RMK A01 T02420077  RH  035%=      5-min Rain = 0
KVA1 260001Z 05013KT 24/08 A2995 RMK A01 T02410077  RH  035%=      5-min Rain = 0
KVA1 260002Z 06013KT 24/08 A2995 RMK A01 T02400078  RH  035%=      5-min Rain = 0
KVA1 260003Z 05013KT 24/08 A2995 RMK A01 T02400078  RH  036%=      5-min Rain = 0
KVA1 260004Z 05011KT 24/08 A2995 RMK A01 T02400078  RH  035%=      5-min Rain = 0
KVA1 260005Z 05011KT 24/08 A2995 RMK A01 T02400077  RH  035%=      5-min Rain = 0
KVA1 260006Z 07011KT 24/08 A2995 RMK A01 T02400077  RH  035%=      5-min Rain = 0
KVA1 260007Z 06012KT 24/08 A2994 RMK A01 T02410077  RH  035%=      5-min Rain = 0
KVA1 260008Z 06012KT 24/08 A2994 RMK A01 T02410077  RH  035%=      5-min Rain = 0
KVA1 260009Z 06012G17KT 24/08 A2995 RMK A01 T02410077  RH  035%=      5-min Rain = 0
KVA1 260010Z 05012KT 24/08 A2995 RMK A01 T02420077  RH  035%=      5-min Rain = 0
KVA1 260011Z 05011KT 24/08 A2995 RMK A01 T02410077  RH  035%=      5-min Rain = 0
KVA1 260012Z 05013KT 24/08 A2995 RMK A01 T02400077  RH  035%=      5-min Rain = 0
KVA1 260013Z 04012KT 24/08 A2995 RMK A01 T02390076  RH  035%=      5-min Rain = 0
KVA1 260014Z 05011G16KT 24/08 A2995 RMK A01 T02390077  RH  035%=      5-min Rain = 0
KVA1 260015Z 04014KT 24/08 A2995 RMK A01 T02390076  RH  035%=      5-min Rain = 0
KVA1 260016Z 05013KT 24/08 A2995 RMK A01 T02390076  RH  035%=      5-min Rain = 0
KVA1 260017Z 04012KT 24/08 A2995 RMK A01 T02390076  RH  035%=      5-min Rain = 0
KVA1 260018Z 04013KT 24/08 A2995 RMK A01 T02390076  RH  035%=      5-min Rain = 0
KVA1 260019Z 05010KT 24/08 A2995 RMK A01 T02390075  RH  035%=      5-min Rain = 0
KVA1 260020Z 04009KT 24/08 A2995 RMK A01 T02380075  RH  035%=      5-min Rain = 0
KVA1 260021Z 03011KT 24/08 A2995 RMK A01 T02380076  RH  035%=      5-min Rain = 0
KVA1 260022Z 05012KT 24/08 A2995 RMK A01 T02380075  RH  035%=      5-min Rain = 0
KVA1 260023Z 05009KT 24/08 A2995 RMK A01 T02380075  RH  035%=      5-min Rain = 0
KVA1 260024Z 04009KT 24/08 A2995 RMK A01 T02380075  RH  035%=      5-min Rain = 0
KVA1 260025Z 04009KT 24/08 A2995 RMK A01 T02390075  RH  035%=      5-min Rain = 0
KVA1 260026Z 05009KT 24/08 A2995 RMK A01 T02400075  RH  035%=      5-min Rain = 0
KVA1 260027Z 05008KT 24/08 A2995 RMK A01 T02410076  RH  035%=      5-min Rain = 0
KVA1 260028Z 04009KT 24/08 A2995 RMK A01 T02410075  RH  035%=      5-min Rain = 0
KVA1 260029Z 05010KT 24/08 A2995 RMK A01 T02420075  RH  034%=      5-min Rain = 0
KVA1 260030Z 05012KT 24/08 A2995 RMK A01 T02410075  RH  035%=      5-min Rain = 0
KVA1 260031Z 05010KT 24/08 A2996 RMK A01 T02400075  RH  035%=      5-min Rain = 0
KVA1 260032Z 03008KT 24/08 A2996 RMK A01 T02390075  RH  035%=      5-min Rain = 0
KVA1 260033Z 03011KT 24/08 A2996 RMK A01 T02400075  RH  035%=      5-min Rain = 0
KVA1 260034Z 03010KT 24/08 A2996 RMK A01 T02400075  RH  035%=      5-min Rain = 0
KVA1 260035Z 03010KT 24/08 A2996 RMK A01 T02400076  RH  035%=      5-min Rain = 0
KVA1 260036Z 03011KT 24/08 A2996 RMK A01 T02400076  RH  035%=      5-min Rain = 0
KVA1 260037Z 03011KT 24/08 A2996 RMK A01 T02390076  RH  035%=      5-min Rain = 0
KVA1 260038Z 03013KT 24/08 A2996 RMK A01 T02390075  RH  035%=      5-min Rain = 0
KVA1 260039Z 04013KT 24/08 A2996 RMK A01 T02390076  RH  035%=      5-min Rain = 0
KVA1 260040Z 04012KT 24/08 A2996 RMK A01 T02390075  RH  035%=      5-min Rain = 0
KVA1 260041Z 04010KT 24/08 A2996 RMK A01 T02390075  RH  035%=      5-min Rain = 0
KVA1 260042Z 03012KT 24/07 A2996 RMK A01 T02390074  RH  035%=      5-min Rain = 0
KVA1 260043Z 03009KT 24/07 A2996 RMK A01 T02390074  RH  035%=      5-min Rain = 0
KVA1 260044Z 03008G13KT 24/08 A2996 RMK A01 T02390075  RH  035%=      5-min Rain = 0
KVA1 260045Z 05012KT 24/07 A2996 RMK A01 T02390074  RH  035%=      5-min Rain = 0
KVA1 260046Z 05012KT 24/07 A2996 RMK A01 T02390074  RH  035%=      5-min Rain = 0
KVA1 260047Z 04010KT 24/07 A2996 RMK A01 T02380073  RH  035%=      5-min Rain = 0
KVA1 260048Z 03011KT 24/07 A2996 RMK A01 T02380073  RH  035%=      5-min Rain = 0
KVA1 260049Z 03014KT 24/07 A2996 RMK A01 T02380073  RH  035%=      5-min Rain = 0
KVA1 260050Z 04011KT 24/07 A2996 RMK A01 T02370073  RH  035%=      5-min Rain = 0
KVA1 260051Z 05009KT 24/07 A2996 RMK A01 T02360074  RH  035%=      5-min Rain = 0
KVA1 260052Z 05009KT 24/07 A2996 RMK A01 T02360073  RH  035%=      5-min Rain = 0
KVA1 260053Z 04010KT 24/08 A2996 RMK A01 T02360075  RH  036%=      5-min Rain = 0
KVA1 260054Z 05013KT 24/07 A2996 RMK A01 T02370074  RH  035%=      5-min Rain = 0
KVA1 260055Z 05010KT 24/08 A2996 RMK A01 T02360076  RH  036%=      5-min Rain = 0
KVA1 260056Z 05011KT 24/08 A2996 RMK A01 T02350077  RH  036%=      5-min Rain = 0
KVA1 260057Z 05012KT 24/08 A2996 RMK A01 T02350078  RH  036%=      5-min Rain = 0
KVA1 260058Z 04012KT 23/08 A2996 RMK A01 T02340078  RH  037%=      5-min Rain = 0
KVA1 260059Z 06009KT 23/08 A2996 RMK A01 T02340079  RH  037%=      5-min Rain = 0
KVA1 260100Z 05009KT 23/08 A2996 RMK A01 T02340079  RH  037%=      5-min Rain = 0
KVA1 260101Z 04010KT 24/08 A2996 RMK A01 T02350079  RH  037%=      5-min Rain = 0
KVA1 260102Z 05012KT 23/08 A2996 RMK A01 T02340079  RH  037%=      5-min Rain = 0
KVA1 260103Z 04013KT 23/08 A2996 RMK A01 T02330079  RH  037%=      5-min Rain = 0
KVA1 260104Z 03011KT 23/08 A2996 RMK A01 T02330078  RH  037%=      5-min Rain = 0
KVA1 260105Z 04010G15KT 23/08 A2997 RMK A01 T02330078  RH  037%=      5-min Rain = 0
KVA1 260106Z 02010KT 23/08 A2997 RMK A01 T02330077  RH  037%=      5-min Rain = 0
KVA1 260107Z 03011KT 23/08 A2997 RMK A01 T02330077  RH  037%=      5-min Rain = 0
KVA1 260108Z 03010KT 23/08 A2997 RMK A01 T02330077  RH  037%=      5-min Rain = 0
KVA1 260109Z 03011KT 23/08 A2997 RMK A01 T02330077  RH  037%=      5-min Rain = 0
KVA1 260110Z 03013KT 23/08 A2997 RMK A01 T02320076  RH  037%=      5-min Rain = 0
KVA1 260111Z 04011KT 23/08 A2997 RMK A01 T02330076  RH  037%=      5-min Rain = 0
KVA1 260112Z 04011KT 23/08 A2997 RMK A01 T02320076  RH  037%=      5-min Rain = 0
KVA1 260113Z 04009KT 23/08 A2997 RMK A01 T02320076  RH  037%=      5-min Rain = 0
KVA1 260114Z 04012KT 23/08 A2997 RMK A01 T02320075  RH  037%=      5-min Rain = 0
KVA1 260115Z 03012KT 23/08 A2997 RMK A01 T02310075  RH  037%=      5-min Rain = 0
KVA1 260116Z 03010KT 23/07 A2997 RMK A01 T02310074  RH  037%=      5-min Rain = 0
KVA1 260117Z 03011KT 23/08 A2997 RMK A01 T02310075  RH  037%=      5-min Rain = 0
KVA1 260118Z 04012KT 23/08 A2997 RMK A01 T02310075  RH  037%=      5-min Rain = 0
KVA1 260119Z 05010KT 23/07 A2997 RMK A01 T02300074  RH  037%=      5-min Rain = 0
KVA1 260120Z 05011KT 23/08 A2997 RMK A01 T02300076  RH  037%=      5-min Rain = 0
KVA1 260121Z 04009KT 23/08 A2997 RMK A01 T02300076  RH  037%=      5-min Rain = 0
KVA1 260122Z 04012G17KT 23/08 A2997 RMK A01 T02300078  RH  038%=      5-min Rain = 0
KVA1 260123Z 06014KT 23/08 A2997 RMK A01 T02300080  RH  038%=      5-min Rain = 0
KVA1 260124Z 06011KT 23/08 A2997 RMK A01 T02280081  RH  039%=      5-min Rain = 0
KVA1 260125Z 06012KT 23/08 A2997 RMK A01 T02280081  RH  039%=      5-min Rain = 0
KVA1 260126Z 05012KT 23/08 A2997 RMK A01 T02270081  RH  039%=      5-min Rain = 0
KVA1 260127Z 05013KT 23/08 A2997 RMK A01 T02260081  RH  039%=      5-min Rain = 0
KVA1 260128Z 06012KT 23/08 A2997 RMK A01 T02260081  RH  039%=      5-min Rain = 0
KVA1 260129Z 05010KT 23/08 A2998 RMK A01 T02260081  RH  039%=      5-min Rain = 0
KVA1 260130Z 05012G19KT 23/08 A2998 RMK A01 T02250081  RH  040%=      5-min Rain = 0
KVA1 260131Z 05012G17KT 23/08 A2998 RMK A01 T02250082  RH  040%=      5-min Rain = 0
KVA1 260132Z 05011KT 23/08 A2998 RMK A01 T02250082  RH  040%=      5-min Rain = 0
KVA1 260133Z 05012KT 23/08 A2998 RMK A01 T02250082  RH  040%=      5-min Rain = 0
KVA1 260134Z 05013KT 23/08 A2998 RMK A01 T02250082  RH  040%=      5-min Rain = 0
KVA1 260135Z 05014KT 22/08 A2998 RMK A01 T02240081  RH  040%=      5-min Rain = 0
KVA1 260136Z 05013KT 22/08 A2998 RMK A01 T02230081  RH  040%=      5-min Rain = 0
KVA1 260137Z 04013KT 22/08 A2998 RMK A01 T02230082  RH  040%=      5-min Rain = 0
KVA1 260138Z 05013KT 22/08 A2998 RMK A01 T02230081  RH  040%=      5-min Rain = 0
KVA1 260139Z 05014KT 22/08 A2998 RMK A01 T02220081  RH  040%=      5-min Rain = 0
KVA1 260140Z 05014KT 22/08 A2998 RMK A01 T02220081  RH  040%=      5-min Rain = 0
KVA1 260141Z 05011KT 22/08 A2998 RMK A01 T02220081  RH  040%=      5-min Rain = 0
KVA1 260142Z 05009KT 22/08 A2998 RMK A01 T02210081  RH  040%=      5-min Rain = 0
KVA1 260143Z 05012KT 22/08 A2998 RMK A01 T02210081  RH  041%=      5-min Rain = 0
KVA1 260144Z 05012KT 22/08 A2998 RMK A01 T02210081  RH  041%=      5-min Rain = 0
KVA1 260145Z 05012KT 22/08 A2998 RMK A01 T02210082  RH  041%=      5-min Rain = 0
KVA1 260146Z 05012KT 22/08 A2998 RMK A01 T02200082  RH  041%=      5-min Rain = 0
KVA1 260147Z 05013KT 22/08 A2998 RMK A01 T02200083  RH  041%=      5-min Rain = 0
KVA1 260148Z 05012KT 22/08 A2998 RMK A01 T02190083  RH  042%=      5-min Rain = 0
KVA1 260149Z 06011KT 22/08 A2998 RMK A01 T02190083  RH  042%=      5-min Rain = 0
KVA1 260150Z 05012KT 22/08 A2998 RMK A01 T02180083  RH  042%=      5-min Rain = 0
KVA1 260151Z 05013KT 22/08 A2998 RMK A01 T02180083  RH  042%=      5-min Rain = 0
KVA1 260152Z 05011KT 22/08 A2999 RMK A01 T02180083  RH  042%=      5-min Rain = 0
KVA1 260153Z 05011KT 22/08 A2999 RMK A01 T02170083  RH  042%=      5-min Rain = 0
KVA1 260154Z 05011KT 22/08 A2999 RMK A01 T02170083  RH  042%=      5-min Rain = 0
KVA1 260155Z 05011KT 22/08 A2999 RMK A01 T02170083  RH  042%=      5-min Rain = 0
KVA1 260156Z 05010KT 22/08 A2999 RMK A01 T02170083  RH  042%=      5-min Rain = 0
KVA1 260157Z 05012KT 22/08 A2999 RMK A01 T02160083  RH  042%=      5-min Rain = 0
KVA1 260158Z 05013KT 22/08 A2999 RMK A01 T02160083  RH  042%=      5-min Rain = 0
KVA1 260159Z 05013KT 22/08 A2999 RMK A01 T02160083  RH  042%=      5-min Rain = 0
KVA1 260200Z 05015KT 22/08 A2999 RMK A01 T02150083  RH  043%=      5-min Rain = 0
KVA1 260201Z 05012KT 22/08 A2999 RMK A01 T02150083  RH  043%=      5-min Rain = 0
KVA1 260202Z 04012KT 22/08 A2999 RMK A01 T02150083  RH  043%=      5-min Rain = 0
KVA1 260203Z 04012KT 21/08 A2999 RMK A01 T02140083  RH  043%=      5-min Rain = 0
KVA1 260204Z 05014KT 21/08 A2999 RMK A01 T02140083  RH  043%=      5-min Rain = 0
KVA1 260205Z 04012KT 21/08 A2999 RMK A01 T02140083  RH  043%=      5-min Rain = 0
KVA1 260206Z 05013KT 21/08 A2999 RMK A01 T02130083  RH  043%=      5-min Rain = 0
KVA1 260207Z 04011KT 21/08 A2999 RMK A01 T02130083  RH  043%=      5-min Rain = 0
KVA1 260208Z 04012KT 21/08 A2999 RMK A01 T02130083  RH  043%=      5-min Rain = 0
KVA1 260209Z 05011KT 21/08 A2999 RMK A01 T02130083  RH  043%=      5-min Rain = 0
KVA1 260210Z 05011KT 21/08 A2999 RMK A01 T02130083  RH  043%=      5-min Rain = 0
KVA1 260211Z 05012KT 21/08 A2999 RMK A01 T02130083  RH  043%=      5-min Rain = 0
KVA1 260212Z 05011KT 21/08 A2999 RMK A01 T02120082  RH  043%=      5-min Rain = 0
KVA1 260213Z 05009KT 21/08 A2999 RMK A01 T02120082  RH  043%=      5-min Rain = 0
KVA1 260214Z 05008KT 21/08 A30 RMK A01 T02120082  RH  043%=      5-min Rain = 0
KVA1 260215Z 05010KT 21/08 A30 RMK A01 T02120082  RH  043%=      5-min Rain = 0
KVA1 260216Z 04009KT 21/08 A30 RMK A01 T02110081  RH  043%=      5-min Rain = 0
KVA1 260217Z 04011KT 21/08 A30 RMK A01 T02110081  RH  043%=      5-min Rain = 0
KVA1 260218Z 04011KT 21/08 A30 RMK A01 T02110081  RH  043%=      5-min Rain = 0
KVA1 260219Z 05011KT 21/08 A30 RMK A01 T02110081  RH  043%=      5-min Rain = 0
KVA1 260220Z 05009KT 21/08 A30 RMK A01 T02110081  RH  043%=      5-min Rain = 0
KVA1 260221Z 05009KT 21/08 A30 RMK A01 T02110081  RH  043%=      5-min Rain = 0
KVA1 260222Z 05007G12KT 21/08 A30 RMK A01 T02110081  RH  043%=      5-min Rain = 0
KVA1 260223Z 05009KT 21/08 A30 RMK A01 T02100081  RH  043%=      5-min Rain = 0
KVA1 260224Z 05008KT 21/08 A30 RMK A01 T02100080  RH  043%=      5-min Rain = 0
KVA1 260225Z 05011KT 21/08 A3001 RMK A01 T02100081  RH  043%=      5-min Rain = 0
KVA1 260226Z 05009KT 21/08 A3001 RMK A01 T02100081  RH  043%=      5-min Rain = 0
KVA1 260227Z 05008KT 21/08 A3001 RMK A01 T02100081  RH  043%=      5-min Rain = 0
KVA1 260228Z 05011KT 21/08 A3001 RMK A01 T02090080  RH  043%=      5-min Rain = 0
KVA1 260229Z 05010KT 21/08 A30 RMK A01 T02090080  RH  043%=      5-min Rain = 0
KVA1 260230Z 05010KT 21/08 A30 RMK A01 T02090080  RH  043%=      5-min Rain = 0
KVA1 260231Z 05008KT 21/08 A30 RMK A01 T02090080  RH  043%=      5-min Rain = 0
KVA1 260232Z 04010KT 21/08 A3001 RMK A01 T02090080  RH  043%=      5-min Rain = 0
KVA1 260233Z 05009KT 21/08 A3001 RMK A01 T02080080  RH  044%=      5-min Rain = 0
KVA1 260234Z 05010KT 21/08 A30 RMK A01 T02080080  RH  044%=      5-min Rain = 0
KVA1 260235Z 05010KT 21/08 A30 RMK A01 T02080080  RH  044%=      5-min Rain = 0
KVA1 260236Z 05010KT 21/08 A30 RMK A01 T02080080  RH  044%=      5-min Rain = 0
KVA1 260237Z 05009KT 21/08 A30 RMK A01 T02070080  RH  044%=      5-min Rain = 0
KVA1 260238Z 05010KT 21/08 A3001 RMK A01 T02070080  RH  044%=      5-min Rain = 0
KVA1 260239Z 04010KT 21/08 A3001 RMK A01 T02070080  RH  044%=      5-min Rain = 0
KVA1 260240Z 05009KT 21/08 A3001 RMK A01 T02070080  RH  044%=      5-min Rain = 0
KVA1 260241Z 05010KT 21/08 A3001 RMK A01 T02060080  RH  044%=      5-min Rain = 0
KVA1 260242Z 04009KT 21/08 A3001 RMK A01 T02060080  RH  044%=      5-min Rain = 0
KVA1 260243Z 05008KT 21/08 A3001 RMK A01 T02060080  RH  044%=      5-min Rain = 0
KVA1 260244Z 04010KT 21/08 A3001 RMK A01 T02060080  RH  044%=      5-min Rain = 0
KVA1 260245Z 04010KT 21/08 A3001 RMK A01 T02060080  RH  044%=      5-min Rain = 0
KVA1 260246Z 04010KT 21/08 A3001 RMK A01 T02060079  RH  044%=      5-min Rain = 0
KVA1 260247Z 05012KT 21/08 A3001 RMK A01 T02060080  RH  044%=      5-min Rain = 0
KVA1 260248Z 04010KT 21/08 A3001 RMK A01 T02060079  RH  044%=      5-min Rain = 0
KVA1 260249Z 04009KT 21/08 A3001 RMK A01 T02060079  RH  044%=      5-min Rain = 0
KVA1 260250Z 04010KT 21/08 A3001 RMK A01 T02060079  RH  044%=      5-min Rain = 0
KVA1 260251Z 05010KT 21/08 A3001 RMK A01 T02060079  RH  044%=      5-min Rain = 0
KVA1 260252Z 05009KT 21/08 A3001 RMK A01 T02060079  RH  044%=      5-min Rain = 0
KVA1 260253Z 04008KT 21/08 A3001 RMK A01 T02050079  RH  044%=      5-min Rain = 0
KVA1 260254Z 04010KT 21/08 A3001 RMK A01 T02050079  RH  044%=      5-min Rain = 0
KVA1 260255Z 04010KT 21/08 A3001 RMK A01 T02050079  RH  044%=      5-min Rain = 0
KVA1 260256Z 04011KT 21/08 A3001 RMK A01 T02050078  RH  044%=      5-min Rain = 0
KVA1 260257Z 04010KT 21/08 A3001 RMK A01 T02050078  RH  044%=      5-min Rain = 0
KVA1 260258Z 04010KT 21/08 A3001 RMK A01 T02050078  RH  044%=      5-min Rain = 0
KVA1 260259Z 04011KT 21/08 A3001 RMK A01 T02050078  RH  044%=      5-min Rain = 0
KVA1 260300Z 05008KT 21/08 A3001 RMK A01 T02050078  RH  044%=      5-min Rain = 0
KVA1 260301Z 04008KT 21/08 A3001 RMK A01 T02050078  RH  044%=      5-min Rain = 0
KVA1 260302Z 05009KT 21/08 A3001 RMK A01 T02050078  RH  044%=      5-min Rain = 0
KVA1 260303Z 04010KT 21/08 A3001 RMK A01 T02050078  RH  044%=      5-min Rain = 0
KVA1 260304Z 04009KT 20/08 A3001 RMK A01 T02040078  RH  044%=      5-min Rain = 0
KVA1 260305Z 04007KT 20/08 A3002 RMK A01 T02040078  RH  044%=      5-min Rain = 0
KVA1 260306Z 04007KT 20/08 A3002 RMK A01 T02040078  RH  044%=      5-min Rain = 0
KVA1 260307Z 04007KT 20/08 A3002 RMK A01 T02030077  RH  044%=      5-min Rain = 0
KVA1 260308Z 04007KT 20/08 A3002 RMK A01 T02030077  RH  044%=      5-min Rain = 0
KVA1 260309Z 03009KT 20/08 A3002 RMK A01 T02030078  RH  044%=      5-min Rain = 0
KVA1 260310Z 04008KT 20/08 A3002 RMK A01 T02030078  RH  045%=      5-min Rain = 0
KVA1 260311Z 03007KT 20/08 A3002 RMK A01 T02020078  RH  044%=      5-min Rain = 0
KVA1 260312Z 04008KT 20/08 A3002 RMK A01 T02020078  RH  045%=      5-min Rain = 0
KVA1 260313Z 04008KT 20/08 A3002 RMK A01 T02020078  RH  045%=      5-min Rain = 0
KVA1 260314Z 04007KT 20/08 A3002 RMK A01 T02020078  RH  045%=      5-min Rain = 0
KVA1 260315Z 04008KT 20/08 A3002 RMK A01 T02010077  RH  045%=      5-min Rain = 0
KVA1 260316Z 04008KT 20/08 A3002 RMK A01 T02010077  RH  045%=      5-min Rain = 0
KVA1 260317Z 04007KT 20/08 A3002 RMK A01 T02010077  RH  045%=      5-min Rain = 0
KVA1 260318Z 03006KT 20/08 A3002 RMK A01 T02010077  RH  045%=      5-min Rain = 0
KVA1 260319Z 03008KT 20/08 A3002 RMK A01 T02000077  RH  045%=      5-min Rain = 0
KVA1 260320Z 03007KT 20/08 A3002 RMK A01 T02000078  RH  045%=      5-min Rain = 0
KVA1 260321Z 04008KT 20/08 A3002 RMK A01 T01990077  RH  045%=      5-min Rain = 0
KVA1 260322Z 04008KT 20/08 A3003 RMK A01 T01990078  RH  045%=      5-min Rain = 0
KVA1 260323Z 04007KT 20/08 A3003 RMK A01 T01990078  RH  045%=      5-min Rain = 0
KVA1 260324Z 04008KT 20/08 A3003 RMK A01 T01990078  RH  045%=      5-min Rain = 0
KVA1 260325Z 04008KT 20/08 A3003 RMK A01 T01990078  RH  046%=      5-min Rain = 0
KVA1 260326Z 04009KT 20/08 A3003 RMK A01 T01990079  RH  046%=      5-min Rain = 0
KVA1 260327Z 04007KT 20/08 A3003 RMK A01 T01990079  RH  046%=      5-min Rain = 0
KVA1 260328Z 04008KT 20/08 A3003 RMK A01 T01990079  RH  046%=      5-min Rain = 0
KVA1 260329Z 05009KT 20/08 A3003 RMK A01 T01990079  RH  046%=      5-min Rain = 0
KVA1 260330Z 04009KT 20/08 A3003 RMK A01 T01990080  RH  046%=      5-min Rain = 0
KVA1 260331Z 04009KT 20/08 A3003 RMK A01 T01990080  RH  046%=      5-min Rain = 0
KVA1 260332Z 04009KT 20/08 A3003 RMK A01 T01990080  RH  046%=      5-min Rain = 0
KVA1 260333Z 04008KT 20/08 A3003 RMK A01 T01990080  RH  046%=      5-min Rain = 0
KVA1 260334Z 04008KT 20/08 A3003 RMK A01 T02000081  RH  046%=      5-min Rain = 0
KVA1 260335Z 04009KT 20/08 A3003 RMK A01 T01990081  RH  046%=      5-min Rain = 0
KVA1 260336Z 04008KT 20/08 A3003 RMK A01 T01990081  RH  046%=      5-min Rain = 0
KVA1 260337Z 03008KT 20/08 A3004 RMK A01 T01990081  RH  046%=      5-min Rain = 0
KVA1 260338Z 04009KT 20/08 A3004 RMK A01 T01980081  RH  047%=      5-min Rain = 0
KVA1 260339Z 04007KT 20/08 A3004 RMK A01 T01980081  RH  047%=      5-min Rain = 0
KVA1 260340Z 04007KT 20/08 A3004 RMK A01 T01990082  RH  047%=      5-min Rain = 0
KVA1 260341Z 04007KT 20/08 A3004 RMK A01 T01980082  RH  047%=      5-min Rain = 0
KVA1 260342Z 03006KT 20/08 A3004 RMK A01 T01970081  RH  047%=      5-min Rain = 0
KVA1 260343Z 04007KT 20/08 A3004 RMK A01 T01970081  RH  047%=      5-min Rain = 0
KVA1 260344Z 04007KT 20/08 A3004 RMK A01 T01970081  RH  047%=      5-min Rain = 0
KVA1 260345Z 04008KT 20/08 A3004 RMK A01 T01960081  RH  047%=      5-min Rain = 0
KVA1 260346Z 03007KT 20/08 A3004 RMK A01 T01970082  RH  047%=      5-min Rain = 0
KVA1 260347Z 03006KT 20/08 A3004 RMK A01 T01970081  RH  047%=      5-min Rain = 0
KVA1 260348Z 03007KT 20/08 A3004 RMK A01 T01960081  RH  047%=      5-min Rain = 0
KVA1 260349Z 03008KT 20/08 A3004 RMK A01 T01960081  RH  047%=      5-min Rain = 0
KVA1 260350Z 03008KT 20/08 A3004 RMK A01 T01960081  RH  047%=      5-min Rain = 0
KVA1 260351Z 03007KT 20/08 A3004 RMK A01 T01960082  RH  047%=      5-min Rain = 0
KVA1 260352Z 02008KT 20/08 A3005 RMK A01 T01960082  RH  048%=      5-min Rain = 0
KVA1 260353Z 03009KT 20/08 A3005 RMK A01 T01960082  RH  048%=      5-min Rain = 0
KVA1 260354Z 03008KT 20/08 A3005 RMK A01 T01960082  RH  048%=      5-min Rain = 0
KVA1 260355Z 03007KT 20/08 A3005 RMK A01 T01960082  RH  048%=      5-min Rain = 0
KVA1 260356Z 02007KT 20/08 A3005 RMK A01 T01960082  RH  048%=      5-min Rain = 0
KVA1 260357Z 03006KT 20/08 A3005 RMK A01 T01950082  RH  048%=      5-min Rain = 0
KVA1 260358Z 02007KT 19/08 A3005 RMK A01 T01940081  RH  048%=      5-min Rain = 0
KVA1 260359Z 02007KT 19/08 A3005 RMK A01 T01940081  RH  048%=      5-min Rain = 0
KVA1 260400Z 02007KT 19/08 A3005 RMK A01 T01940081  RH  048%=      5-min Rain = 0
KVA1 260401Z 02007KT 19/08 A3005 RMK A01 T01940081  RH  048%=      5-min Rain = 0
KVA1 260402Z 02007KT 19/08 A3005 RMK A01 T01930081  RH  048%=      5-min Rain = 0
KVA1 260403Z 02007KT 19/08 A3005 RMK A01 T01930081  RH  048%=      5-min Rain = 0
KVA1 260404Z 03007KT 19/08 A3005 RMK A01 T01930081  RH  048%=      5-min Rain = 0
KVA1 260405Z 02007KT 19/08 A3005 RMK A01 T01920081  RH  048%=      5-min Rain = 0
KVA1 260406Z 02007KT 19/08 A3005 RMK A01 T01920081  RH  048%=      5-min Rain = 0
KVA1 260407Z 03007KT 19/08 A3005 RMK A01 T01920081  RH  049%=      5-min Rain = 0
KVA1 260408Z 03007KT 19/08 A3005 RMK A01 T01910081  RH  049%=      5-min Rain = 0
KVA1 260409Z 02007KT 19/08 A3005 RMK A01 T01910081  RH  049%=      5-min Rain = 0
KVA1 260410Z 02006KT 19/08 A3005 RMK A01 T01910081  RH  049%=      5-min Rain = 0
KVA1 260411Z 02007KT 19/08 A3005 RMK A01 T01910081  RH  049%=      5-min Rain = 0
KVA1 260412Z 02007KT 19/08 A3005 RMK A01 T01910081  RH  049%=      5-min Rain = 0
KVA1 260413Z 02007KT 19/08 A3005 RMK A01 T01900081  RH  049%=      5-min Rain = 0
KVA1 260414Z 02007KT 19/08 A3005 RMK A01 T01900081  RH  049%=      5-min Rain = 0
KVA1 260415Z 02007KT 19/08 A3005 RMK A01 T01890081  RH  049%=      5-min Rain = 0
KVA1 260416Z 02007KT 19/08 A3005 RMK A01 T01890080  RH  049%=      5-min Rain = 0
KVA1 260417Z 02007KT 19/08 A3006 RMK A01 T01880080  RH  049%=      5-min Rain = 0
KVA1 260418Z 02007KT 19/08 A3006 RMK A01 T01880080  RH  049%=      5-min Rain = 0
KVA1 260419Z 02008KT 19/08 A3006 RMK A01 T01870080  RH  050%=      5-min Rain = 0
KVA1 260420Z 02007KT 19/08 A3006 RMK A01 T01870080  RH  050%=      5-min Rain = 0
KVA1 260421Z 02007KT 19/08 A3006 RMK A01 T01870080  RH  050%=      5-min Rain = 0
KVA1 260422Z 02008KT 19/08 A3006 RMK A01 T01870080  RH  050%=      5-min Rain = 0
KVA1 260423Z 02007KT 19/08 A3006 RMK A01 T01870080  RH  050%=      5-min Rain = 0
KVA1 260424Z 02007KT 19/08 A3006 RMK A01 T01870080  RH  050%=      5-min Rain = 0
KVA1 260425Z 02009KT 19/08 A3006 RMK A01 T01870080  RH  050%=      5-min Rain = 0
KVA1 260426Z 02008KT 19/08 A3006 RMK A01 T01870081  RH  050%=      5-min Rain = 0
KVA1 260427Z 02009KT 19/08 A3006 RMK A01 T01870081  RH  050%=      5-min Rain = 0
KVA1 260428Z 02008KT 19/08 A3006 RMK A01 T01880081  RH  050%=      5-min Rain = 0
KVA1 260429Z 02007KT 19/08 A3006 RMK A01 T01880081  RH  050%=      5-min Rain = 0
KVA1 260430Z 02008KT 19/08 A3006 RMK A01 T01880081  RH  050%=      5-min Rain = 0
KVA1 260431Z 02008KT 19/08 A3006 RMK A01 T01880081  RH  050%=      5-min Rain = 0
KVA1 260432Z 02008KT 19/08 A3006 RMK A01 T01880082  RH  050%=      5-min Rain = 0
KVA1 260433Z 02008KT 19/08 A3006 RMK A01 T01880081  RH  050%=      5-min Rain = 0
KVA1 260434Z 03008KT 19/08 A3006 RMK A01 T01880081  RH  050%=      5-min Rain = 0
KVA1 260435Z 02007KT 19/08 A3006 RMK A01 T01870081  RH  050%=      5-min Rain = 0
KVA1 260436Z 03007KT 19/08 A3006 RMK A01 T01870082  RH  050%=      5-min Rain = 0
KVA1 260437Z 02007KT 19/08 A3006 RMK A01 T01870082  RH  050%=      5-min Rain = 0
KVA1 260438Z 02007KT 19/08 A3006 RMK A01 T01870081  RH  050%=      5-min Rain = 0
KVA1 260439Z 02007KT 19/08 A3006 RMK A01 T01870081  RH  050%=      5-min Rain = 0
KVA1 260440Z 02008KT 19/08 A3006 RMK A01 T01870081  RH  050%=      5-min Rain = 0
KVA1 260441Z 02007KT 19/08 A3006 RMK A01 T01870081  RH  050%=      5-min Rain = 0
KVA1 260442Z 02008KT 19/08 A3007 RMK A01 T01870081  RH  050%=      5-min Rain = 0
KVA1 260443Z 03008KT 19/08 A3007 RMK A01 T01870081  RH  050%=      5-min Rain = 0
KVA1 260444Z 02007KT 19/08 A3007 RMK A01 T01860081  RH  050%=      5-min Rain = 0
KVA1 260445Z 02007KT 19/08 A3007 RMK A01 T01860081  RH  050%=      5-min Rain = 0
KVA1 260446Z 02007KT 19/08 A3007 RMK A01 T01860081  RH  050%=      5-min Rain = 0
KVA1 260447Z 02008KT 19/08 A3007 RMK A01 T01860081  RH  050%=      5-min Rain = 0
KVA1 260448Z 02009KT 19/08 A3006 RMK A01 T01860082  RH  051%=      5-min Rain = 0
KVA1 260449Z 02008KT 19/08 A3006 RMK A01 T01860082  RH  051%=      5-min Rain = 0
KVA1 260450Z 03008KT 19/08 A3006 RMK A01 T01860081  RH  050%=      5-min Rain = 0
KVA1 260451Z 02008KT 19/08 A3006 RMK A01 T01860081  RH  050%=      5-min Rain = 0
KVA1 260452Z 02008KT 19/08 A3006 RMK A01 T01860082  RH  051%=      5-min Rain = 0
KVA1 260453Z 02009KT 19/08 A3006 RMK A01 T01860081  RH  050%=      5-min Rain = 0
KVA1 260454Z 02008KT 19/08 A3006 RMK A01 T01860081  RH  051%=      5-min Rain = 0
KVA1 260455Z 03008KT 19/08 A3006 RMK A01 T01860082  RH  051%=      5-min Rain = 0
KVA1 260456Z 02009KT 19/08 A3006 RMK A01 T01860082  RH  051%=      5-min Rain = 0
KVA1 260457Z 02008KT 19/08 A3006 RMK A01 T01860081  RH  051%=      5-min Rain = 0
KVA1 260458Z 02008KT 19/08 A3006 RMK A01 T01860081  RH  050%=      5-min Rain = 0
KVA1 260459Z 02008KT 19/08 A3006 RMK A01 T01860081  RH  051%=      5-min Rain = 0

Page generated in 0.1399 seconds.